<?xml version="1.0" encoding="UTF-8" standalone="no" ?>
<gpx xmlns="http://www.topografix.com/GPX/1/1" xmlns:xsi="http://www.w3.org/2001/XMLSchema-instance" xsi:schemaLocation="http://www.topografix.com/GPX/1/1 http://www.topografix.com/GPX/1/1/gpx.xsd" version="1.1" creator="VisuGPX - https://www.visugpx.com">
  <metadata>
    <name>Croix Claude tete de Gouvelin La roche des vieux chevaux Lispach Longemer</name>
  </metadata>
  <trk>
    <name><![CDATA[2022-09-20 16:47:52]]></name>
    <extensions>
      <line xmlns="http://www.topografix.com/GPX/gpx_style/0/2">
        <color>0000FF</color>
        <width>4</width>
      </line>
    </extensions>
    <trkseg>
      <trkpt lat="48.04272" lon="6.93235">
        <ele>862.2</ele>
        <time>2022-09-20T07:45:23Z</time>
      </trkpt>
      <trkpt lat="48.0427" lon="6.93214">
        <ele>861.8</ele>
        <time>2022-09-20T07:45:28Z</time>
      </trkpt>
      <trkpt lat="48.04264" lon="6.93193">
        <ele>865.15</ele>
        <time>2022-09-20T07:45:42Z</time>
      </trkpt>
      <trkpt lat="48.04263" lon="6.93191">
        <ele>865.12</ele>
        <time>2022-09-20T07:45:43Z</time>
      </trkpt>
      <trkpt lat="48.04262" lon="6.9319">
        <ele>865.09</ele>
        <time>2022-09-20T07:45:44Z</time>
      </trkpt>
      <trkpt lat="48.04262" lon="6.93185">
        <ele>864.88</ele>
        <time>2022-09-20T07:45:56Z</time>
      </trkpt>
      <trkpt lat="48.04263" lon="6.93183">
        <ele>864.88</ele>
        <time>2022-09-20T07:45:57Z</time>
      </trkpt>
      <trkpt lat="48.04264" lon="6.93181">
        <ele>864.88</ele>
        <time>2022-09-20T07:45:58Z</time>
      </trkpt>
      <trkpt lat="48.04264" lon="6.93179">
        <ele>864.87</ele>
        <time>2022-09-20T07:45:59Z</time>
      </trkpt>
      <trkpt lat="48.04264" lon="6.93177">
        <ele>864.83</ele>
        <time>2022-09-20T07:46:00Z</time>
      </trkpt>
      <trkpt lat="48.04263" lon="6.93176">
        <ele>864.79</ele>
        <time>2022-09-20T07:46:01Z</time>
      </trkpt>
      <trkpt lat="48.04263" lon="6.93175">
        <ele>864.74</ele>
        <time>2022-09-20T07:46:02Z</time>
      </trkpt>
      <trkpt lat="48.04262" lon="6.93175">
        <ele>864.7</ele>
        <time>2022-09-20T07:46:03Z</time>
      </trkpt>
      <trkpt lat="48.04262" lon="6.93168">
        <ele>864.5</ele>
        <time>2022-09-20T07:46:08Z</time>
      </trkpt>
      <trkpt lat="48.04262" lon="6.93166">
        <ele>864.49</ele>
        <time>2022-09-20T07:46:09Z</time>
      </trkpt>
      <trkpt lat="48.04262" lon="6.93165">
        <ele>864.47</ele>
        <time>2022-09-20T07:46:10Z</time>
      </trkpt>
      <trkpt lat="48.04263" lon="6.93163">
        <ele>864.45</ele>
        <time>2022-09-20T07:46:11Z</time>
      </trkpt>
      <trkpt lat="48.04263" lon="6.93161">
        <ele>864.42</ele>
        <time>2022-09-20T07:46:12Z</time>
      </trkpt>
      <trkpt lat="48.04262" lon="6.9316">
        <ele>864.38</ele>
        <time>2022-09-20T07:46:13Z</time>
      </trkpt>
      <trkpt lat="48.04262" lon="6.93158">
        <ele>864.31</ele>
        <time>2022-09-20T07:46:14Z</time>
      </trkpt>
      <trkpt lat="48.04262" lon="6.93156">
        <ele>864.22</ele>
        <time>2022-09-20T07:46:15Z</time>
      </trkpt>
      <trkpt lat="48.04263" lon="6.93154">
        <ele>864.19</ele>
        <time>2022-09-20T07:46:16Z</time>
      </trkpt>
      <trkpt lat="48.04263" lon="6.93152">
        <ele>864.17</ele>
        <time>2022-09-20T07:46:17Z</time>
      </trkpt>
      <trkpt lat="48.04264" lon="6.9315">
        <ele>864.16</ele>
        <time>2022-09-20T07:46:18Z</time>
      </trkpt>
      <trkpt lat="48.04264" lon="6.93149">
        <ele>864.13</ele>
        <time>2022-09-20T07:46:19Z</time>
      </trkpt>
      <trkpt lat="48.04264" lon="6.93147">
        <ele>864.1</ele>
        <time>2022-09-20T07:46:20Z</time>
      </trkpt>
      <trkpt lat="48.04265" lon="6.93146">
        <ele>864.09</ele>
        <time>2022-09-20T07:46:21Z</time>
      </trkpt>
      <trkpt lat="48.04265" lon="6.93144">
        <ele>864.09</ele>
        <time>2022-09-20T07:46:22Z</time>
      </trkpt>
      <trkpt lat="48.04265" lon="6.93142">
        <ele>864.04</ele>
        <time>2022-09-20T07:46:23Z</time>
      </trkpt>
      <trkpt lat="48.04265" lon="6.93141">
        <ele>864</ele>
        <time>2022-09-20T07:46:24Z</time>
      </trkpt>
      <trkpt lat="48.04265" lon="6.9314">
        <ele>863.95</ele>
        <time>2022-09-20T07:46:25Z</time>
      </trkpt>
      <trkpt lat="48.04268" lon="6.93132">
        <ele>863.91</ele>
        <time>2022-09-20T07:46:30Z</time>
      </trkpt>
      <trkpt lat="48.04277" lon="6.9312">
        <ele>863.45</ele>
        <time>2022-09-20T07:46:42Z</time>
      </trkpt>
      <trkpt lat="48.04282" lon="6.93106">
        <ele>863.21</ele>
        <time>2022-09-20T07:46:55Z</time>
      </trkpt>
      <trkpt lat="48.04288" lon="6.93103">
        <ele>863.69</ele>
        <time>2022-09-20T07:47:03Z</time>
      </trkpt>
      <trkpt lat="48.04285" lon="6.93038">
        <ele>914.6</ele>
        <time>2022-09-20T07:47:52Z</time>
      </trkpt>
      <trkpt lat="48.04283" lon="6.92999">
        <ele>914.19</ele>
        <time>2022-09-20T07:48:20Z</time>
      </trkpt>
      <trkpt lat="48.04285" lon="6.9296">
        <ele>914.4</ele>
        <time>2022-09-20T07:48:46Z</time>
      </trkpt>
      <trkpt lat="48.04277" lon="6.92927">
        <ele>914.6</ele>
        <time>2022-09-20T07:49:11Z</time>
      </trkpt>
      <trkpt lat="48.04255" lon="6.92906">
        <ele>865.4</ele>
        <time>2022-09-20T07:49:32Z</time>
      </trkpt>
      <trkpt lat="48.04229" lon="6.92908">
        <ele>918</ele>
        <time>2022-09-20T07:49:58Z</time>
      </trkpt>
      <trkpt lat="48.04203" lon="6.92917">
        <ele>917.4</ele>
        <time>2022-09-20T07:50:19Z</time>
      </trkpt>
      <trkpt lat="48.04177" lon="6.92919">
        <ele>918.4</ele>
        <time>2022-09-20T07:50:43Z</time>
      </trkpt>
      <trkpt lat="48.04152" lon="6.92934">
        <ele>917.6</ele>
        <time>2022-09-20T07:51:04Z</time>
      </trkpt>
      <trkpt lat="48.04127" lon="6.92936">
        <ele>916.6</ele>
        <time>2022-09-20T07:51:26Z</time>
      </trkpt>
      <trkpt lat="48.04099" lon="6.92934">
        <ele>917</ele>
        <time>2022-09-20T07:51:51Z</time>
      </trkpt>
      <trkpt lat="48.04072" lon="6.92935">
        <ele>913.19</ele>
        <time>2022-09-20T07:52:17Z</time>
      </trkpt>
      <trkpt lat="48.04046" lon="6.92926">
        <ele>914.4</ele>
        <time>2022-09-20T07:52:38Z</time>
      </trkpt>
      <trkpt lat="48.0402" lon="6.92917">
        <ele>916.4</ele>
        <time>2022-09-20T07:52:59Z</time>
      </trkpt>
      <trkpt lat="48.03997" lon="6.92934">
        <ele>864.2</ele>
        <time>2022-09-20T07:53:24Z</time>
      </trkpt>
      <trkpt lat="48.03991" lon="6.92938">
        <ele>863.3</ele>
      </trkpt>
      <trkpt lat="48.03983" lon="6.92939">
        <ele>863.2</ele>
        <time>2022-09-20T07:53:53Z</time>
      </trkpt>
      <trkpt lat="48.04" lon="6.92949">
        <ele>913.19</ele>
        <time>2022-09-20T07:54:28Z</time>
      </trkpt>
      <trkpt lat="48.04012" lon="6.92942">
        <ele>910.4</ele>
        <time>2022-09-20T07:55:04Z</time>
      </trkpt>
      <trkpt lat="48.04002" lon="6.92957">
        <ele>909.8</ele>
        <time>2022-09-20T07:55:41Z</time>
      </trkpt>
      <trkpt lat="48.03981" lon="6.92951">
        <ele>913.19</ele>
        <time>2022-09-20T07:56:30Z</time>
      </trkpt>
      <trkpt lat="48.03976" lon="6.92922">
        <ele>915.4</ele>
        <time>2022-09-20T07:56:55Z</time>
      </trkpt>
      <trkpt lat="48.03973" lon="6.92906">
        <ele>864.9</ele>
      </trkpt>
      <trkpt lat="48.03983" lon="6.9289">
        <ele>915.6</ele>
        <time>2022-09-20T07:57:28Z</time>
      </trkpt>
      <trkpt lat="48.03999" lon="6.92886">
        <ele>917.19</ele>
        <time>2022-09-20T07:58:01Z</time>
      </trkpt>
      <trkpt lat="48.04015" lon="6.92861">
        <ele>919.8</ele>
        <time>2022-09-20T07:58:31Z</time>
      </trkpt>
      <trkpt lat="48.04025" lon="6.92828">
        <ele>923.8</ele>
        <time>2022-09-20T07:59:33Z</time>
      </trkpt>
      <trkpt lat="48.04039" lon="6.92811">
        <ele>926.19</ele>
        <time>2022-09-20T08:00:11Z</time>
      </trkpt>
      <trkpt lat="48.04048" lon="6.92778">
        <ele>929.19</ele>
        <time>2022-09-20T08:00:47Z</time>
      </trkpt>
      <trkpt lat="48.04032" lon="6.92743">
        <ele>940.4</ele>
        <time>2022-09-20T08:01:46Z</time>
      </trkpt>
      <trkpt lat="48.04039" lon="6.92725">
        <ele>942.6</ele>
        <time>2022-09-20T08:02:09Z</time>
      </trkpt>
      <trkpt lat="48.0403" lon="6.92697">
        <ele>950.8</ele>
        <time>2022-09-20T08:02:47Z</time>
      </trkpt>
      <trkpt lat="48.04025" lon="6.92668">
        <ele>960.6</ele>
        <time>2022-09-20T08:03:47Z</time>
      </trkpt>
      <trkpt lat="48.04018" lon="6.92636">
        <ele>964.8</ele>
        <time>2022-09-20T08:04:19Z</time>
      </trkpt>
      <trkpt lat="48.04002" lon="6.92616">
        <ele>973.6</ele>
        <time>2022-09-20T08:05:31Z</time>
      </trkpt>
      <trkpt lat="48.04" lon="6.92617">
        <ele>929.7</ele>
        <time>2022-09-20T08:07:29Z</time>
      </trkpt>
      <trkpt lat="48.03991" lon="6.92607">
        <ele>982.19</ele>
        <time>2022-09-20T08:08:18Z</time>
      </trkpt>
      <trkpt lat="48.03977" lon="6.92581">
        <ele>983.8</ele>
        <time>2022-09-20T08:08:47Z</time>
      </trkpt>
      <trkpt lat="48.03964" lon="6.92546">
        <ele>985.19</ele>
        <time>2022-09-20T08:09:13Z</time>
      </trkpt>
      <trkpt lat="48.03956" lon="6.92514">
        <ele>988.19</ele>
        <time>2022-09-20T08:09:37Z</time>
      </trkpt>
      <trkpt lat="48.03937" lon="6.92481">
        <ele>991.8</ele>
        <time>2022-09-20T08:10:08Z</time>
      </trkpt>
      <trkpt lat="48.03926" lon="6.92448">
        <ele>993</ele>
        <time>2022-09-20T08:10:32Z</time>
      </trkpt>
      <trkpt lat="48.03921" lon="6.92411">
        <ele>994</ele>
        <time>2022-09-20T08:11:03Z</time>
      </trkpt>
      <trkpt lat="48.03936" lon="6.92425">
        <ele>990.8</ele>
        <time>2022-09-20T08:11:38Z</time>
      </trkpt>
      <trkpt lat="48.03954" lon="6.92453">
        <ele>989.8</ele>
        <time>2022-09-20T08:12:05Z</time>
      </trkpt>
      <trkpt lat="48.03969" lon="6.92483">
        <ele>993</ele>
        <time>2022-09-20T08:12:30Z</time>
      </trkpt>
      <trkpt lat="48.03993" lon="6.92498">
        <ele>992.4</ele>
        <time>2022-09-20T08:12:59Z</time>
      </trkpt>
      <trkpt lat="48.0402" lon="6.92508">
        <ele>992.4</ele>
        <time>2022-09-20T08:13:26Z</time>
      </trkpt>
      <trkpt lat="48.04045" lon="6.92516">
        <ele>993.6</ele>
        <time>2022-09-20T08:13:56Z</time>
      </trkpt>
      <trkpt lat="48.04053" lon="6.92529">
        <ele>992.19</ele>
        <time>2022-09-20T08:14:19Z</time>
      </trkpt>
      <trkpt lat="48.04082" lon="6.92546">
        <ele>992.6</ele>
        <time>2022-09-20T08:14:40Z</time>
      </trkpt>
      <trkpt lat="48.04106" lon="6.92556">
        <ele>995</ele>
        <time>2022-09-20T08:15:05Z</time>
      </trkpt>
      <trkpt lat="48.04105" lon="6.92537">
        <ele>1000.8</ele>
        <time>2022-09-20T08:15:34Z</time>
      </trkpt>
      <trkpt lat="48.04086" lon="6.92509">
        <ele>1006</ele>
        <time>2022-09-20T08:16:02Z</time>
      </trkpt>
      <trkpt lat="48.04074" lon="6.92473">
        <ele>1009.19</ele>
        <time>2022-09-20T08:16:27Z</time>
      </trkpt>
      <trkpt lat="48.04064" lon="6.92441">
        <ele>1014.8</ele>
        <time>2022-09-20T08:16:52Z</time>
      </trkpt>
      <trkpt lat="48.0405" lon="6.92405">
        <ele>1016.19</ele>
        <time>2022-09-20T08:17:21Z</time>
      </trkpt>
      <trkpt lat="48.04034" lon="6.92374">
        <ele>1020</ele>
        <time>2022-09-20T08:17:44Z</time>
      </trkpt>
      <trkpt lat="48.04034" lon="6.92334">
        <ele>1023.8</ele>
        <time>2022-09-20T08:18:10Z</time>
      </trkpt>
      <trkpt lat="48.04039" lon="6.92297">
        <ele>1026.4</ele>
        <time>2022-09-20T08:18:34Z</time>
      </trkpt>
      <trkpt lat="48.0404" lon="6.92292">
        <ele>1026.4</ele>
        <time>2022-09-20T08:18:36Z</time>
      </trkpt>
      <trkpt lat="48.04057" lon="6.92261">
        <ele>1028.6</ele>
        <time>2022-09-20T08:19:04Z</time>
      </trkpt>
      <trkpt lat="48.04072" lon="6.9223">
        <ele>1030.6</ele>
        <time>2022-09-20T08:19:30Z</time>
      </trkpt>
      <trkpt lat="48.04073" lon="6.92194">
        <ele>1029.19</ele>
        <time>2022-09-20T08:19:54Z</time>
      </trkpt>
      <trkpt lat="48.04066" lon="6.92158">
        <ele>1029.19</ele>
        <time>2022-09-20T08:20:26Z</time>
      </trkpt>
      <trkpt lat="48.0405" lon="6.92125">
        <ele>1029.19</ele>
        <time>2022-09-20T08:20:55Z</time>
      </trkpt>
      <trkpt lat="48.0403" lon="6.92099">
        <ele>1030.19</ele>
        <time>2022-09-20T08:21:19Z</time>
      </trkpt>
      <trkpt lat="48.04015" lon="6.92073">
        <ele>1031.8</ele>
        <time>2022-09-20T08:21:46Z</time>
      </trkpt>
      <trkpt lat="48.03994" lon="6.92047">
        <ele>1038.4</ele>
        <time>2022-09-20T08:22:15Z</time>
      </trkpt>
      <trkpt lat="48.03977" lon="6.92019">
        <ele>1041.8</ele>
        <time>2022-09-20T08:22:42Z</time>
      </trkpt>
      <trkpt lat="48.03961" lon="6.91991">
        <ele>1048.8</ele>
        <time>2022-09-20T08:23:10Z</time>
      </trkpt>
      <trkpt lat="48.03946" lon="6.91957">
        <ele>1057.19</ele>
        <time>2022-09-20T08:23:46Z</time>
      </trkpt>
      <trkpt lat="48.03931" lon="6.91928">
        <ele>1012.9</ele>
      </trkpt>
      <trkpt lat="48.03905" lon="6.91917">
        <ele>1015</ele>
        <time>2022-09-20T08:24:39Z</time>
      </trkpt>
      <trkpt lat="48.03903" lon="6.91905">
        <ele>1015</ele>
      </trkpt>
      <trkpt lat="48.03907" lon="6.91884">
        <ele>1069</ele>
        <time>2022-09-20T08:25:11Z</time>
      </trkpt>
      <trkpt lat="48.03927" lon="6.91856">
        <ele>1070.19</ele>
        <time>2022-09-20T08:25:49Z</time>
      </trkpt>
      <trkpt lat="48.0395" lon="6.9186">
        <ele>1070.4</ele>
        <time>2022-09-20T08:26:12Z</time>
      </trkpt>
      <trkpt lat="48.03972" lon="6.9188">
        <ele>1072</ele>
        <time>2022-09-20T08:26:41Z</time>
      </trkpt>
      <trkpt lat="48.03992" lon="6.91902">
        <ele>1075</ele>
        <time>2022-09-20T08:27:09Z</time>
      </trkpt>
      <trkpt lat="48.04021" lon="6.91911">
        <ele>1076.19</ele>
        <time>2022-09-20T08:27:35Z</time>
      </trkpt>
      <trkpt lat="48.04046" lon="6.91914">
        <ele>1079.6</ele>
        <time>2022-09-20T08:28:05Z</time>
      </trkpt>
      <trkpt lat="48.04056" lon="6.91909">
        <ele>1086.19</ele>
        <time>2022-09-20T08:29:07Z</time>
      </trkpt>
      <trkpt lat="48.04053" lon="6.91907">
        <ele>1084.6</ele>
        <time>2022-09-20T08:30:34Z</time>
      </trkpt>
      <trkpt lat="48.0403" lon="6.91879">
        <ele>1082.6</ele>
        <time>2022-09-20T08:33:32Z</time>
      </trkpt>
      <trkpt lat="48.04014" lon="6.91847">
        <ele>1079</ele>
        <time>2022-09-20T08:34:11Z</time>
      </trkpt>
      <trkpt lat="48.03997" lon="6.91814">
        <ele>1079.19</ele>
        <time>2022-09-20T08:34:34Z</time>
      </trkpt>
      <trkpt lat="48.03982" lon="6.91781">
        <ele>1080</ele>
        <time>2022-09-20T08:35:04Z</time>
      </trkpt>
      <trkpt lat="48.03968" lon="6.91749">
        <ele>1086.8</ele>
        <time>2022-09-20T08:35:25Z</time>
      </trkpt>
      <trkpt lat="48.03954" lon="6.91715">
        <ele>1093.19</ele>
        <time>2022-09-20T08:35:50Z</time>
      </trkpt>
      <trkpt lat="48.03946" lon="6.91677">
        <ele>1100.19</ele>
        <time>2022-09-20T08:36:25Z</time>
      </trkpt>
      <trkpt lat="48.03956" lon="6.91642">
        <ele>1103</ele>
        <time>2022-09-20T08:36:52Z</time>
      </trkpt>
      <trkpt lat="48.0394" lon="6.91655">
        <ele>1109</ele>
        <time>2022-09-20T08:38:40Z</time>
      </trkpt>
      <trkpt lat="48.0393" lon="6.91639">
        <ele>1106</ele>
        <time>2022-09-20T08:41:27Z</time>
      </trkpt>
      <trkpt lat="48.03921" lon="6.91651">
        <ele>1106</ele>
        <time>2022-09-20T08:42:38Z</time>
      </trkpt>
      <trkpt lat="48.0393" lon="6.91636">
        <ele>1105.4</ele>
        <time>2022-09-20T08:44:39Z</time>
      </trkpt>
      <trkpt lat="48.03924" lon="6.916">
        <ele>1107.8</ele>
        <time>2022-09-20T08:45:15Z</time>
      </trkpt>
      <trkpt lat="48.0391" lon="6.91571">
        <ele>1107.8</ele>
        <time>2022-09-20T08:45:42Z</time>
      </trkpt>
      <trkpt lat="48.03884" lon="6.91557">
        <ele>1105.8</ele>
        <time>2022-09-20T08:46:04Z</time>
      </trkpt>
      <trkpt lat="48.03862" lon="6.91533">
        <ele>1105.8</ele>
        <time>2022-09-20T08:46:25Z</time>
      </trkpt>
      <trkpt lat="48.03843" lon="6.91504">
        <ele>1107.6</ele>
        <time>2022-09-20T08:46:46Z</time>
      </trkpt>
      <trkpt lat="48.0383" lon="6.91476">
        <ele>1110.19</ele>
        <time>2022-09-20T08:48:35Z</time>
      </trkpt>
      <trkpt lat="48.03826" lon="6.9143">
        <ele>1113.6</ele>
        <time>2022-09-20T08:48:56Z</time>
      </trkpt>
      <trkpt lat="48.03805" lon="6.91396">
        <ele>1110.8</ele>
        <time>2022-09-20T08:49:17Z</time>
      </trkpt>
      <trkpt lat="48.03779" lon="6.91365">
        <ele>1111.19</ele>
        <time>2022-09-20T08:49:38Z</time>
      </trkpt>
      <trkpt lat="48.03763" lon="6.91332">
        <ele>1108.6</ele>
        <time>2022-09-20T08:50:00Z</time>
      </trkpt>
      <trkpt lat="48.03743" lon="6.91298">
        <ele>1109.19</ele>
        <time>2022-09-20T08:50:21Z</time>
      </trkpt>
      <trkpt lat="48.03721" lon="6.91271">
        <ele>1105.6</ele>
        <time>2022-09-20T08:50:42Z</time>
      </trkpt>
      <trkpt lat="48.03703" lon="6.91241">
        <ele>1106.4</ele>
        <time>2022-09-20T08:51:03Z</time>
      </trkpt>
      <trkpt lat="48.03676" lon="6.91222">
        <ele>1107.4</ele>
        <time>2022-09-20T08:51:24Z</time>
      </trkpt>
      <trkpt lat="48.03648" lon="6.9121">
        <ele>1107.6</ele>
        <time>2022-09-20T08:51:45Z</time>
      </trkpt>
      <trkpt lat="48.0362" lon="6.91197">
        <ele>1109.4</ele>
        <time>2022-09-20T08:52:06Z</time>
      </trkpt>
      <trkpt lat="48.03596" lon="6.91181">
        <ele>1108.6</ele>
        <time>2022-09-20T08:52:27Z</time>
      </trkpt>
      <trkpt lat="48.03567" lon="6.91163">
        <ele>1110.8</ele>
        <time>2022-09-20T08:52:48Z</time>
      </trkpt>
      <trkpt lat="48.03539" lon="6.91139">
        <ele>1109.6</ele>
        <time>2022-09-20T08:53:09Z</time>
      </trkpt>
      <trkpt lat="48.03515" lon="6.91118">
        <ele>1109.19</ele>
        <time>2022-09-20T08:53:30Z</time>
      </trkpt>
      <trkpt lat="48.03492" lon="6.91095">
        <ele>1110.19</ele>
        <time>2022-09-20T08:53:51Z</time>
      </trkpt>
      <trkpt lat="48.03472" lon="6.91069">
        <ele>1107.6</ele>
        <time>2022-09-20T08:54:12Z</time>
      </trkpt>
      <trkpt lat="48.03454" lon="6.91042">
        <ele>1106.4</ele>
        <time>2022-09-20T08:54:35Z</time>
      </trkpt>
      <trkpt lat="48.03438" lon="6.91011">
        <ele>1106.19</ele>
        <time>2022-09-20T08:54:58Z</time>
      </trkpt>
      <trkpt lat="48.03422" lon="6.90977">
        <ele>1106.19</ele>
        <time>2022-09-20T08:55:22Z</time>
      </trkpt>
      <trkpt lat="48.03422" lon="6.90975">
        <ele>1106.18</ele>
        <time>2022-09-20T08:55:23Z</time>
      </trkpt>
      <trkpt lat="48.03414" lon="6.90943">
        <ele>1107.39</ele>
        <time>2022-09-20T08:55:44Z</time>
      </trkpt>
      <trkpt lat="48.03408" lon="6.90903">
        <ele>1108.18</ele>
        <time>2022-09-20T08:56:05Z</time>
      </trkpt>
      <trkpt lat="48.03396" lon="6.90869">
        <ele>1107.39</ele>
        <time>2022-09-20T08:56:28Z</time>
      </trkpt>
      <trkpt lat="48.03391" lon="6.9083">
        <ele>1106.79</ele>
        <time>2022-09-20T08:56:51Z</time>
      </trkpt>
      <trkpt lat="48.03387" lon="6.90791">
        <ele>1106.99</ele>
        <time>2022-09-20T08:57:14Z</time>
      </trkpt>
      <trkpt lat="48.03381" lon="6.90752">
        <ele>1108.39</ele>
        <time>2022-09-20T08:57:37Z</time>
      </trkpt>
      <trkpt lat="48.03377" lon="6.90714">
        <ele>1107.99</ele>
        <time>2022-09-20T08:57:59Z</time>
      </trkpt>
      <trkpt lat="48.03371" lon="6.90676">
        <ele>1108.59</ele>
        <time>2022-09-20T08:58:26Z</time>
      </trkpt>
      <trkpt lat="48.03364" lon="6.90639">
        <ele>1108.99</ele>
        <time>2022-09-20T08:58:53Z</time>
      </trkpt>
      <trkpt lat="48.03358" lon="6.90602">
        <ele>1115.39</ele>
        <time>2022-09-20T08:59:27Z</time>
      </trkpt>
      <trkpt lat="48.0336" lon="6.90566">
        <ele>1070.5</ele>
        <time>2022-09-20T08:59:57Z</time>
      </trkpt>
      <trkpt lat="48.03366" lon="6.90526">
        <ele>1123.99</ele>
        <time>2022-09-20T09:00:24Z</time>
      </trkpt>
      <trkpt lat="48.03373" lon="6.90487">
        <ele>1126.39</ele>
        <time>2022-09-20T09:00:52Z</time>
      </trkpt>
      <trkpt lat="48.03379" lon="6.90452">
        <ele>1128.39</ele>
        <time>2022-09-20T09:01:18Z</time>
      </trkpt>
      <trkpt lat="48.03372" lon="6.90414">
        <ele>1130.99</ele>
        <time>2022-09-20T09:02:42Z</time>
      </trkpt>
      <trkpt lat="48.03369" lon="6.90387">
        <ele>1079.1</ele>
        <time>2022-09-20T09:04:24Z</time>
      </trkpt>
      <trkpt lat="48.03369" lon="6.90351">
        <ele>1079.5</ele>
        <time>2022-09-20T09:04:59Z</time>
      </trkpt>
      <trkpt lat="48.03376" lon="6.90304">
        <ele>1079.6</ele>
        <time>2022-09-20T09:05:27Z</time>
      </trkpt>
      <trkpt lat="48.03394" lon="6.90327">
        <ele>1085.8</ele>
        <time>2022-09-20T09:06:23Z</time>
      </trkpt>
      <trkpt lat="48.03397" lon="6.90335">
        <ele>1087.1</ele>
        <time>2022-09-20T09:08:00Z</time>
      </trkpt>
      <trkpt lat="48.03403" lon="6.90339">
        <ele>1088.5</ele>
      </trkpt>
      <trkpt lat="48.03404" lon="6.90339">
        <ele>1139.39</ele>
        <time>2022-09-20T09:11:50Z</time>
      </trkpt>
      <trkpt lat="48.03394" lon="6.90322">
        <ele>1136.99</ele>
        <time>2022-09-20T09:14:47Z</time>
      </trkpt>
      <trkpt lat="48.03377" lon="6.90295">
        <ele>1131.39</ele>
        <time>2022-09-20T09:15:21Z</time>
      </trkpt>
      <trkpt lat="48.03388" lon="6.90262">
        <ele>1127.39</ele>
        <time>2022-09-20T09:15:45Z</time>
      </trkpt>
      <trkpt lat="48.03388" lon="6.90224">
        <ele>1125.59</ele>
        <time>2022-09-20T09:16:06Z</time>
      </trkpt>
      <trkpt lat="48.03408" lon="6.90202">
        <ele>1125.18</ele>
        <time>2022-09-20T09:16:36Z</time>
      </trkpt>
      <trkpt lat="48.03422" lon="6.90166">
        <ele>1123.39</ele>
        <time>2022-09-20T09:17:03Z</time>
      </trkpt>
      <trkpt lat="48.0343" lon="6.90131">
        <ele>1122.59</ele>
        <time>2022-09-20T09:17:25Z</time>
      </trkpt>
      <trkpt lat="48.03439" lon="6.90092">
        <ele>1120.79</ele>
        <time>2022-09-20T09:17:46Z</time>
      </trkpt>
      <trkpt lat="48.0345" lon="6.90062">
        <ele>1118.79</ele>
        <time>2022-09-20T09:18:09Z</time>
      </trkpt>
      <trkpt lat="48.03455" lon="6.90032">
        <ele>1058.3</ele>
        <time>2022-09-20T09:18:41Z</time>
      </trkpt>
      <trkpt lat="48.03459" lon="6.89993">
        <ele>1115.59</ele>
        <time>2022-09-20T09:19:07Z</time>
      </trkpt>
      <trkpt lat="48.0347" lon="6.89952">
        <ele>1117.59</ele>
        <time>2022-09-20T09:19:28Z</time>
      </trkpt>
      <trkpt lat="48.03487" lon="6.89919">
        <ele>1051.5</ele>
        <time>2022-09-20T09:19:52Z</time>
      </trkpt>
      <trkpt lat="48.03496" lon="6.8988">
        <ele>1048.9</ele>
        <time>2022-09-20T09:20:15Z</time>
      </trkpt>
      <trkpt lat="48.03492" lon="6.89864">
        <ele>1048.4</ele>
      </trkpt>
      <trkpt lat="48.03488" lon="6.89859">
        <ele>1048.3</ele>
      </trkpt>
      <trkpt lat="48.03465" lon="6.89845">
        <ele>1046.8</ele>
        <time>2022-09-20T09:21:09Z</time>
      </trkpt>
      <trkpt lat="48.03496" lon="6.89813">
        <ele>1103.18</ele>
        <time>2022-09-20T09:21:56Z</time>
      </trkpt>
      <trkpt lat="48.03517" lon="6.8979">
        <ele>1103.59</ele>
        <time>2022-09-20T09:22:25Z</time>
      </trkpt>
      <trkpt lat="48.03542" lon="6.8978">
        <ele>1100.79</ele>
        <time>2022-09-20T09:22:49Z</time>
      </trkpt>
      <trkpt lat="48.03568" lon="6.89787">
        <ele>1089.99</ele>
        <time>2022-09-20T09:23:14Z</time>
      </trkpt>
      <trkpt lat="48.03596" lon="6.89791">
        <ele>1088.59</ele>
        <time>2022-09-20T09:23:35Z</time>
      </trkpt>
      <trkpt lat="48.03621" lon="6.89783">
        <ele>1087.18</ele>
        <time>2022-09-20T09:23:56Z</time>
      </trkpt>
      <trkpt lat="48.03645" lon="6.89763">
        <ele>1031.4</ele>
      </trkpt>
      <trkpt lat="48.03647" lon="6.8976">
        <ele>1031.4</ele>
      </trkpt>
      <trkpt lat="48.03648" lon="6.89757">
        <ele>1031.2</ele>
        <time>2022-09-20T09:24:17Z</time>
      </trkpt>
      <trkpt lat="48.03662" lon="6.89729">
        <ele>1081.79</ele>
        <time>2022-09-20T09:24:52Z</time>
      </trkpt>
      <trkpt lat="48.03684" lon="6.89715">
        <ele>1031.7</ele>
        <time>2022-09-20T09:25:25Z</time>
      </trkpt>
      <trkpt lat="48.03691" lon="6.89707">
        <ele>1031.9</ele>
      </trkpt>
      <trkpt lat="48.03704" lon="6.89699">
        <ele>1031.6</ele>
      </trkpt>
      <trkpt lat="48.03706" lon="6.89707">
        <ele>1031.4</ele>
        <time>2022-09-20T09:26:21Z</time>
      </trkpt>
      <trkpt lat="48.03707" lon="6.89723">
        <ele>1082.39</ele>
        <time>2022-09-20T09:26:52Z</time>
      </trkpt>
      <trkpt lat="48.03703" lon="6.89702">
        <ele>1082.79</ele>
        <time>2022-09-20T09:27:13Z</time>
      </trkpt>
      <trkpt lat="48.03695" lon="6.89709">
        <ele>1084.79</ele>
        <time>2022-09-20T09:27:41Z</time>
      </trkpt>
      <trkpt lat="48.03679" lon="6.89722">
        <ele>1084.59</ele>
        <time>2022-09-20T09:28:40Z</time>
      </trkpt>
      <trkpt lat="48.03667" lon="6.89733">
        <ele>1030.6</ele>
      </trkpt>
      <trkpt lat="48.03655" lon="6.89752">
        <ele>1030.8</ele>
        <time>2022-09-20T09:29:01Z</time>
      </trkpt>
      <trkpt lat="48.03643" lon="6.89775">
        <ele>1031.6</ele>
        <time>2022-09-20T09:29:41Z</time>
      </trkpt>
      <trkpt lat="48.03656" lon="6.89795">
        <ele>1088.39</ele>
        <time>2022-09-20T09:30:02Z</time>
      </trkpt>
      <trkpt lat="48.03673" lon="6.89817">
        <ele>1028</ele>
        <time>2022-09-20T09:30:24Z</time>
      </trkpt>
      <trkpt lat="48.03693" lon="6.89842">
        <ele>1084.18</ele>
        <time>2022-09-20T09:30:45Z</time>
      </trkpt>
      <trkpt lat="48.03705" lon="6.89869">
        <ele>1084.18</ele>
        <time>2022-09-20T09:31:10Z</time>
      </trkpt>
      <trkpt lat="48.03728" lon="6.89888">
        <ele>1080.99</ele>
        <time>2022-09-20T09:31:31Z</time>
      </trkpt>
      <trkpt lat="48.03756" lon="6.89899">
        <ele>1078.59</ele>
        <time>2022-09-20T09:31:52Z</time>
      </trkpt>
      <trkpt lat="48.03757" lon="6.899">
        <ele>1078.59</ele>
        <time>2022-09-20T09:31:53Z</time>
      </trkpt>
      <trkpt lat="48.03776" lon="6.89916">
        <ele>1073.19</ele>
        <time>2022-09-20T09:32:15Z</time>
      </trkpt>
      <trkpt lat="48.03794" lon="6.89947">
        <ele>1072.59</ele>
        <time>2022-09-20T09:32:37Z</time>
      </trkpt>
      <trkpt lat="48.03815" lon="6.89971">
        <ele>1072.59</ele>
        <time>2022-09-20T09:33:00Z</time>
      </trkpt>
      <trkpt lat="48.03832" lon="6.90001">
        <ele>1069.39</ele>
        <time>2022-09-20T09:33:23Z</time>
      </trkpt>
      <trkpt lat="48.03852" lon="6.90025">
        <ele>1068.59</ele>
        <time>2022-09-20T09:33:44Z</time>
      </trkpt>
      <trkpt lat="48.03872" lon="6.90054">
        <ele>1067.99</ele>
        <time>2022-09-20T09:34:09Z</time>
      </trkpt>
      <trkpt lat="48.03897" lon="6.90056">
        <ele>1066.99</ele>
        <time>2022-09-20T09:34:32Z</time>
      </trkpt>
      <trkpt lat="48.03917" lon="6.90083">
        <ele>1062.99</ele>
        <time>2022-09-20T09:34:53Z</time>
      </trkpt>
      <trkpt lat="48.03911" lon="6.9012">
        <ele>1060.59</ele>
        <time>2022-09-20T09:35:18Z</time>
      </trkpt>
      <trkpt lat="48.03897" lon="6.90153">
        <ele>1059.39</ele>
        <time>2022-09-20T09:35:44Z</time>
      </trkpt>
      <trkpt lat="48.03891" lon="6.90178">
        <ele>1008.4</ele>
        <time>2022-09-20T09:36:11Z</time>
      </trkpt>
      <trkpt lat="48.03898" lon="6.90226">
        <ele>1057.39</ele>
        <time>2022-09-20T09:36:34Z</time>
      </trkpt>
      <trkpt lat="48.03905" lon="6.90261">
        <ele>1058.59</ele>
        <time>2022-09-20T09:36:58Z</time>
      </trkpt>
      <trkpt lat="48.03906" lon="6.90299">
        <ele>1058.39</ele>
        <time>2022-09-20T09:37:22Z</time>
      </trkpt>
      <trkpt lat="48.03908" lon="6.90339">
        <ele>1053.79</ele>
        <time>2022-09-20T09:37:45Z</time>
      </trkpt>
      <trkpt lat="48.03921" lon="6.90375">
        <ele>1053.79</ele>
        <time>2022-09-20T09:38:09Z</time>
      </trkpt>
      <trkpt lat="48.03953" lon="6.90386">
        <ele>1054.79</ele>
        <time>2022-09-20T09:38:30Z</time>
      </trkpt>
      <trkpt lat="48.03973" lon="6.90363">
        <ele>1054.19</ele>
        <time>2022-09-20T09:38:56Z</time>
      </trkpt>
      <trkpt lat="48.03999" lon="6.90353">
        <ele>1001.1</ele>
      </trkpt>
      <trkpt lat="48.04004" lon="6.90371">
        <ele>1000.7</ele>
        <time>2022-09-20T09:39:38Z</time>
      </trkpt>
      <trkpt lat="48.03988" lon="6.90422">
        <ele>1050.59</ele>
        <time>2022-09-20T09:40:01Z</time>
      </trkpt>
      <trkpt lat="48.03977" lon="6.90458">
        <ele>1048.39</ele>
        <time>2022-09-20T09:40:22Z</time>
      </trkpt>
      <trkpt lat="48.03973" lon="6.905">
        <ele>1048.59</ele>
        <time>2022-09-20T09:40:43Z</time>
      </trkpt>
      <trkpt lat="48.03963" lon="6.90538">
        <ele>1046.79</ele>
        <time>2022-09-20T09:41:05Z</time>
      </trkpt>
      <trkpt lat="48.03945" lon="6.90571">
        <ele>1046.79</ele>
        <time>2022-09-20T09:41:26Z</time>
      </trkpt>
      <trkpt lat="48.0394" lon="6.90609">
        <ele>1044.79</ele>
        <time>2022-09-20T09:41:48Z</time>
      </trkpt>
      <trkpt lat="48.03928" lon="6.90654">
        <ele>1045.19</ele>
        <time>2022-09-20T09:42:09Z</time>
      </trkpt>
      <trkpt lat="48.03927" lon="6.90689">
        <ele>983.4</ele>
        <time>2022-09-20T09:42:31Z</time>
      </trkpt>
      <trkpt lat="48.03937" lon="6.90726">
        <ele>1044.19</ele>
        <time>2022-09-20T09:42:55Z</time>
      </trkpt>
      <trkpt lat="48.03951" lon="6.9076">
        <ele>1042.59</ele>
        <time>2022-09-20T09:43:22Z</time>
      </trkpt>
      <trkpt lat="48.03963" lon="6.90793">
        <ele>1043.39</ele>
        <time>2022-09-20T09:43:44Z</time>
      </trkpt>
      <trkpt lat="48.0397" lon="6.90833">
        <ele>1044.39</ele>
        <time>2022-09-20T09:44:05Z</time>
      </trkpt>
      <trkpt lat="48.03994" lon="6.90846">
        <ele>1045.99</ele>
        <time>2022-09-20T09:44:34Z</time>
      </trkpt>
      <trkpt lat="48.04013" lon="6.90842">
        <ele>988.9</ele>
      </trkpt>
      <trkpt lat="48.04016" lon="6.90842">
        <ele>989</ele>
      </trkpt>
      <trkpt lat="48.04049" lon="6.90851">
        <ele>1042.19</ele>
        <time>2022-09-20T09:45:26Z</time>
      </trkpt>
      <trkpt lat="48.04075" lon="6.90851">
        <ele>1044.39</ele>
        <time>2022-09-20T09:45:53Z</time>
      </trkpt>
      <trkpt lat="48.04098" lon="6.90849">
        <ele>1042.59</ele>
        <time>2022-09-20T09:46:15Z</time>
      </trkpt>
      <trkpt lat="48.04127" lon="6.90827">
        <ele>1041.59</ele>
        <time>2022-09-20T09:46:36Z</time>
      </trkpt>
      <trkpt lat="48.04151" lon="6.90821">
        <ele>1038.59</ele>
        <time>2022-09-20T09:47:01Z</time>
      </trkpt>
      <trkpt lat="48.04173" lon="6.90803">
        <ele>1034.99</ele>
        <time>2022-09-20T09:47:32Z</time>
      </trkpt>
      <trkpt lat="48.04201" lon="6.90797">
        <ele>1032.99</ele>
        <time>2022-09-20T09:47:53Z</time>
      </trkpt>
      <trkpt lat="48.04209" lon="6.90806">
        <ele>1034.19</ele>
        <time>2022-09-20T09:51:00Z</time>
      </trkpt>
      <trkpt lat="48.042" lon="6.90829">
        <ele>1040.59</ele>
        <time>2022-09-20T09:52:23Z</time>
      </trkpt>
      <trkpt lat="48.04191" lon="6.90866">
        <ele>1043.99</ele>
        <time>2022-09-20T09:52:54Z</time>
      </trkpt>
      <trkpt lat="48.04175" lon="6.90893">
        <ele>1049.59</ele>
        <time>2022-09-20T09:53:30Z</time>
      </trkpt>
      <trkpt lat="48.04156" lon="6.90915">
        <ele>1054.99</ele>
        <time>2022-09-20T09:54:05Z</time>
      </trkpt>
      <trkpt lat="48.04144" lon="6.90945">
        <ele>1055.99</ele>
        <time>2022-09-20T09:54:39Z</time>
      </trkpt>
      <trkpt lat="48.04127" lon="6.90967">
        <ele>1058.99</ele>
        <time>2022-09-20T09:55:07Z</time>
      </trkpt>
      <trkpt lat="48.04112" lon="6.90994">
        <ele>1059.99</ele>
        <time>2022-09-20T09:55:43Z</time>
      </trkpt>
      <trkpt lat="48.041" lon="6.9103">
        <ele>1064.79</ele>
        <time>2022-09-20T09:56:16Z</time>
      </trkpt>
      <trkpt lat="48.04095" lon="6.91062">
        <ele>1024.9</ele>
        <time>2022-09-20T09:56:47Z</time>
      </trkpt>
      <trkpt lat="48.04097" lon="6.91096">
        <ele>1074.39</ele>
        <time>2022-09-20T09:57:35Z</time>
      </trkpt>
      <trkpt lat="48.0411" lon="6.9113">
        <ele>1081.39</ele>
        <time>2022-09-20T09:58:15Z</time>
      </trkpt>
      <trkpt lat="48.04116" lon="6.91169">
        <ele>1087.39</ele>
        <time>2022-09-20T09:58:56Z</time>
      </trkpt>
      <trkpt lat="48.04124" lon="6.91204">
        <ele>1091.79</ele>
        <time>2022-09-20T09:59:28Z</time>
      </trkpt>
      <trkpt lat="48.04138" lon="6.91239">
        <ele>1096.99</ele>
        <time>2022-09-20T10:00:00Z</time>
      </trkpt>
      <trkpt lat="48.04157" lon="6.91258">
        <ele>1099.79</ele>
        <time>2022-09-20T10:00:32Z</time>
      </trkpt>
      <trkpt lat="48.04168" lon="6.91295">
        <ele>1104.19</ele>
        <time>2022-09-20T10:01:11Z</time>
      </trkpt>
      <trkpt lat="48.0418" lon="6.91326">
        <ele>1107.39</ele>
        <time>2022-09-20T10:01:39Z</time>
      </trkpt>
      <trkpt lat="48.0418" lon="6.91328">
        <ele>1107.39</ele>
        <time>2022-09-20T10:01:41Z</time>
      </trkpt>
      <trkpt lat="48.04201" lon="6.91348">
        <ele>1110.99</ele>
        <time>2022-09-20T10:04:35Z</time>
      </trkpt>
      <trkpt lat="48.04219" lon="6.91365">
        <ele>1111.99</ele>
        <time>2022-09-20T10:05:16Z</time>
      </trkpt>
      <trkpt lat="48.04241" lon="6.91384">
        <ele>1113.99</ele>
        <time>2022-09-20T10:05:47Z</time>
      </trkpt>
      <trkpt lat="48.04263" lon="6.91399">
        <ele>1114.99</ele>
        <time>2022-09-20T10:06:17Z</time>
      </trkpt>
      <trkpt lat="48.04281" lon="6.91424">
        <ele>1119.99</ele>
        <time>2022-09-20T10:06:45Z</time>
      </trkpt>
      <trkpt lat="48.04298" lon="6.91446">
        <ele>1122.59</ele>
        <time>2022-09-20T10:07:16Z</time>
      </trkpt>
      <trkpt lat="48.04319" lon="6.91467">
        <ele>1127.19</ele>
        <time>2022-09-20T10:07:48Z</time>
      </trkpt>
      <trkpt lat="48.04336" lon="6.91493">
        <ele>1129.39</ele>
        <time>2022-09-20T10:08:18Z</time>
      </trkpt>
      <trkpt lat="48.04356" lon="6.91515">
        <ele>1134.19</ele>
        <time>2022-09-20T10:08:55Z</time>
      </trkpt>
      <trkpt lat="48.04378" lon="6.91536">
        <ele>1137.99</ele>
        <time>2022-09-20T10:09:25Z</time>
      </trkpt>
      <trkpt lat="48.04398" lon="6.91557">
        <ele>1140.79</ele>
        <time>2022-09-20T10:09:58Z</time>
      </trkpt>
      <trkpt lat="48.04418" lon="6.91578">
        <ele>1146.19</ele>
        <time>2022-09-20T10:10:29Z</time>
      </trkpt>
      <trkpt lat="48.0444" lon="6.91596">
        <ele>1153.59</ele>
        <time>2022-09-20T10:11:01Z</time>
      </trkpt>
      <trkpt lat="48.04462" lon="6.91613">
        <ele>1157.59</ele>
        <time>2022-09-20T10:11:35Z</time>
      </trkpt>
      <trkpt lat="48.04486" lon="6.9163">
        <ele>1162.79</ele>
        <time>2022-09-20T10:12:06Z</time>
      </trkpt>
      <trkpt lat="48.0451" lon="6.91637">
        <ele>1165.79</ele>
        <time>2022-09-20T10:12:49Z</time>
      </trkpt>
      <trkpt lat="48.04531" lon="6.91664">
        <ele>1168.19</ele>
        <time>2022-09-20T10:13:21Z</time>
      </trkpt>
      <trkpt lat="48.04553" lon="6.91686">
        <ele>1170.59</ele>
        <time>2022-09-20T10:13:56Z</time>
      </trkpt>
      <trkpt lat="48.04579" lon="6.91692">
        <ele>1173.59</ele>
        <time>2022-09-20T10:14:29Z</time>
      </trkpt>
      <trkpt lat="48.04604" lon="6.91687">
        <ele>1175.59</ele>
        <time>2022-09-20T10:14:54Z</time>
      </trkpt>
      <trkpt lat="48.04627" lon="6.91692">
        <ele>1176.99</ele>
        <time>2022-09-20T10:15:24Z</time>
      </trkpt>
      <trkpt lat="48.04653" lon="6.91683">
        <ele>1178.79</ele>
        <time>2022-09-20T10:16:01Z</time>
      </trkpt>
      <trkpt lat="48.04674" lon="6.91673">
        <ele>1180.79</ele>
        <time>2022-09-20T10:16:38Z</time>
      </trkpt>
      <trkpt lat="48.0469" lon="6.91669">
        <ele>1181.79</ele>
        <time>2022-09-20T10:17:13Z</time>
      </trkpt>
      <trkpt lat="48.04692" lon="6.91668">
        <ele>1193.19</ele>
        <time>2022-09-20T10:22:26Z</time>
      </trkpt>
      <trkpt lat="48.04696" lon="6.91669">
        <ele>1190.39</ele>
        <time>2022-09-20T10:49:12Z</time>
      </trkpt>
      <trkpt lat="48.04698" lon="6.91652">
        <ele>1135</ele>
        <time>2022-09-20T10:50:31Z</time>
      </trkpt>
      <trkpt lat="48.04691" lon="6.91653">
        <ele>1135.9</ele>
      </trkpt>
      <trkpt lat="48.04689" lon="6.91653">
        <ele>1135.8</ele>
      </trkpt>
      <trkpt lat="48.04682" lon="6.91653">
        <ele>1189.19</ele>
        <time>2022-09-20T10:52:33Z</time>
      </trkpt>
      <trkpt lat="48.04701" lon="6.91647">
        <ele>1188.19</ele>
        <time>2022-09-20T10:54:24Z</time>
      </trkpt>
      <trkpt lat="48.047" lon="6.9166">
        <ele>1135.4</ele>
      </trkpt>
      <trkpt lat="48.04699" lon="6.91668">
        <ele>1136.2</ele>
      </trkpt>
      <trkpt lat="48.04695" lon="6.91674">
        <ele>1136.9</ele>
      </trkpt>
      <trkpt lat="48.0469" lon="6.91673">
        <ele>1137</ele>
        <time>2022-09-20T11:02:28Z</time>
      </trkpt>
      <trkpt lat="48.04686" lon="6.91677">
        <ele>1191.99</ele>
        <time>2022-09-20T11:05:30Z</time>
      </trkpt>
      <trkpt lat="48.04662" lon="6.91683">
        <ele>1135</ele>
        <time>2022-09-20T11:09:17Z</time>
      </trkpt>
      <trkpt lat="48.04646" lon="6.91697">
        <ele>1182.79</ele>
        <time>2022-09-20T11:10:27Z</time>
      </trkpt>
      <trkpt lat="48.04623" lon="6.91714">
        <ele>1181.59</ele>
        <time>2022-09-20T11:10:50Z</time>
      </trkpt>
      <trkpt lat="48.04604" lon="6.91742">
        <ele>1180.59</ele>
        <time>2022-09-20T11:11:14Z</time>
      </trkpt>
      <trkpt lat="48.04584" lon="6.91763">
        <ele>1180.39</ele>
        <time>2022-09-20T11:11:48Z</time>
      </trkpt>
      <trkpt lat="48.04583" lon="6.91797">
        <ele>1178.19</ele>
        <time>2022-09-20T11:12:22Z</time>
      </trkpt>
      <trkpt lat="48.04569" lon="6.91829">
        <ele>1176.79</ele>
        <time>2022-09-20T11:12:49Z</time>
      </trkpt>
      <trkpt lat="48.04548" lon="6.91849">
        <ele>1176.59</ele>
        <time>2022-09-20T11:13:17Z</time>
      </trkpt>
      <trkpt lat="48.04525" lon="6.91868">
        <ele>1173.99</ele>
        <time>2022-09-20T11:13:40Z</time>
      </trkpt>
      <trkpt lat="48.04507" lon="6.91896">
        <ele>1171.79</ele>
        <time>2022-09-20T11:14:07Z</time>
      </trkpt>
      <trkpt lat="48.04482" lon="6.91899">
        <ele>1168.59</ele>
        <time>2022-09-20T11:14:32Z</time>
      </trkpt>
      <trkpt lat="48.04496" lon="6.91929">
        <ele>1165.79</ele>
        <time>2022-09-20T11:14:59Z</time>
      </trkpt>
      <trkpt lat="48.04518" lon="6.91941">
        <ele>1104</ele>
        <time>2022-09-20T11:15:29Z</time>
      </trkpt>
      <trkpt lat="48.04497" lon="6.91962">
        <ele>1158.79</ele>
        <time>2022-09-20T11:15:55Z</time>
      </trkpt>
      <trkpt lat="48.04476" lon="6.9198">
        <ele>1155.79</ele>
        <time>2022-09-20T11:16:21Z</time>
      </trkpt>
      <trkpt lat="48.04462" lon="6.92013">
        <ele>1153.59</ele>
        <time>2022-09-20T11:16:48Z</time>
      </trkpt>
      <trkpt lat="48.04443" lon="6.92042">
        <ele>1149.39</ele>
        <time>2022-09-20T11:17:09Z</time>
      </trkpt>
      <trkpt lat="48.0442" lon="6.92053">
        <ele>1144.79</ele>
        <time>2022-09-20T11:17:35Z</time>
      </trkpt>
      <trkpt lat="48.04392" lon="6.92054">
        <ele>1140.79</ele>
        <time>2022-09-20T11:18:01Z</time>
      </trkpt>
      <trkpt lat="48.04368" lon="6.92042">
        <ele>1137.59</ele>
        <time>2022-09-20T11:18:26Z</time>
      </trkpt>
      <trkpt lat="48.0434" lon="6.92043">
        <ele>1130.19</ele>
        <time>2022-09-20T11:18:50Z</time>
      </trkpt>
      <trkpt lat="48.04328" lon="6.92051">
        <ele>1126.99</ele>
        <time>2022-09-20T11:20:00Z</time>
      </trkpt>
      <trkpt lat="48.04328" lon="6.92057">
        <ele>1126.99</ele>
        <time>2022-09-20T11:20:02Z</time>
      </trkpt>
      <trkpt lat="48.04346" lon="6.92086">
        <ele>1123.39</ele>
        <time>2022-09-20T11:20:24Z</time>
      </trkpt>
      <trkpt lat="48.04362" lon="6.92119">
        <ele>1120.59</ele>
        <time>2022-09-20T11:20:45Z</time>
      </trkpt>
      <trkpt lat="48.04383" lon="6.92142">
        <ele>1119.79</ele>
        <time>2022-09-20T11:21:06Z</time>
      </trkpt>
      <trkpt lat="48.04408" lon="6.92156">
        <ele>1118.39</ele>
        <time>2022-09-20T11:21:27Z</time>
      </trkpt>
      <trkpt lat="48.04434" lon="6.9215">
        <ele>1115.59</ele>
        <time>2022-09-20T11:21:49Z</time>
      </trkpt>
      <trkpt lat="48.04444" lon="6.92162">
        <ele>1110.79</ele>
        <time>2022-09-20T11:22:28Z</time>
      </trkpt>
      <trkpt lat="48.0446" lon="6.92163">
        <ele>1111.79</ele>
        <time>2022-09-20T11:23:29Z</time>
      </trkpt>
      <trkpt lat="48.04476" lon="6.92151">
        <ele>1056.1</ele>
      </trkpt>
      <trkpt lat="48.04482" lon="6.92144">
        <ele>1055.5</ele>
        <time>2022-09-20T11:23:50Z</time>
      </trkpt>
      <trkpt lat="48.04496" lon="6.92128">
        <ele>1111.59</ele>
        <time>2022-09-20T11:24:18Z</time>
      </trkpt>
      <trkpt lat="48.04517" lon="6.92106">
        <ele>1108.59</ele>
        <time>2022-09-20T11:25:00Z</time>
      </trkpt>
      <trkpt lat="48.04541" lon="6.92097">
        <ele>1108.39</ele>
        <time>2022-09-20T11:25:22Z</time>
      </trkpt>
      <trkpt lat="48.04564" lon="6.92102">
        <ele>1106.39</ele>
        <time>2022-09-20T11:25:53Z</time>
      </trkpt>
      <trkpt lat="48.04591" lon="6.92096">
        <ele>1105.19</ele>
        <time>2022-09-20T11:26:17Z</time>
      </trkpt>
      <trkpt lat="48.04616" lon="6.92084">
        <ele>1104.19</ele>
        <time>2022-09-20T11:26:41Z</time>
      </trkpt>
      <trkpt lat="48.04645" lon="6.92076">
        <ele>1104.59</ele>
        <time>2022-09-20T11:27:02Z</time>
      </trkpt>
      <trkpt lat="48.04671" lon="6.92084">
        <ele>1104.19</ele>
        <time>2022-09-20T11:27:23Z</time>
      </trkpt>
      <trkpt lat="48.04696" lon="6.92097">
        <ele>1103.99</ele>
        <time>2022-09-20T11:27:46Z</time>
      </trkpt>
      <trkpt lat="48.04723" lon="6.921">
        <ele>1101.19</ele>
        <time>2022-09-20T11:28:13Z</time>
      </trkpt>
      <trkpt lat="48.04742" lon="6.92126">
        <ele>1101.59</ele>
        <time>2022-09-20T11:28:34Z</time>
      </trkpt>
      <trkpt lat="48.0476" lon="6.92158">
        <ele>1101.59</ele>
        <time>2022-09-20T11:28:56Z</time>
      </trkpt>
      <trkpt lat="48.04774" lon="6.92165">
        <ele>1100.59</ele>
        <time>2022-09-20T11:29:31Z</time>
      </trkpt>
      <trkpt lat="48.04779" lon="6.92155">
        <ele>1097.79</ele>
        <time>2022-09-20T11:30:27Z</time>
      </trkpt>
      <trkpt lat="48.04782" lon="6.92193">
        <ele>1098.59</ele>
        <time>2022-09-20T11:30:52Z</time>
      </trkpt>
      <trkpt lat="48.04801" lon="6.92223">
        <ele>1098.79</ele>
        <time>2022-09-20T11:31:19Z</time>
      </trkpt>
      <trkpt lat="48.04824" lon="6.92241">
        <ele>1098.99</ele>
        <time>2022-09-20T11:31:40Z</time>
      </trkpt>
      <trkpt lat="48.04841" lon="6.92273">
        <ele>1099.59</ele>
        <time>2022-09-20T11:32:01Z</time>
      </trkpt>
      <trkpt lat="48.04858" lon="6.92297">
        <ele>1099.79</ele>
        <time>2022-09-20T11:32:22Z</time>
      </trkpt>
      <trkpt lat="48.04866" lon="6.92333">
        <ele>1099.99</ele>
        <time>2022-09-20T11:32:43Z</time>
      </trkpt>
      <trkpt lat="48.04884" lon="6.92364">
        <ele>1102.39</ele>
        <time>2022-09-20T11:33:05Z</time>
      </trkpt>
      <trkpt lat="48.04907" lon="6.92384">
        <ele>1103.59</ele>
        <time>2022-09-20T11:33:27Z</time>
      </trkpt>
      <trkpt lat="48.04926" lon="6.92413">
        <ele>1107.19</ele>
        <time>2022-09-20T11:33:48Z</time>
      </trkpt>
      <trkpt lat="48.04931" lon="6.9243">
        <ele>1113.59</ele>
        <time>2022-09-20T11:35:06Z</time>
      </trkpt>
      <trkpt lat="48.04949" lon="6.92461">
        <ele>1111.59</ele>
        <time>2022-09-20T11:35:28Z</time>
      </trkpt>
      <trkpt lat="48.04962" lon="6.9249">
        <ele>1112.99</ele>
        <time>2022-09-20T11:35:49Z</time>
      </trkpt>
      <trkpt lat="48.04981" lon="6.92513">
        <ele>1110.79</ele>
        <time>2022-09-20T11:36:11Z</time>
      </trkpt>
      <trkpt lat="48.05005" lon="6.92535">
        <ele>1110.59</ele>
        <time>2022-09-20T11:36:32Z</time>
      </trkpt>
      <trkpt lat="48.0503" lon="6.92534">
        <ele>1108.19</ele>
        <time>2022-09-20T11:36:53Z</time>
      </trkpt>
      <trkpt lat="48.05052" lon="6.92551">
        <ele>1106.19</ele>
        <time>2022-09-20T11:37:16Z</time>
      </trkpt>
      <trkpt lat="48.05076" lon="6.92571">
        <ele>1104.99</ele>
        <time>2022-09-20T11:37:38Z</time>
      </trkpt>
      <trkpt lat="48.05098" lon="6.92585">
        <ele>1105.19</ele>
        <time>2022-09-20T11:38:00Z</time>
      </trkpt>
      <trkpt lat="48.05121" lon="6.92604">
        <ele>1105.79</ele>
        <time>2022-09-20T11:38:21Z</time>
      </trkpt>
      <trkpt lat="48.05153" lon="6.92621">
        <ele>1105.39</ele>
        <time>2022-09-20T11:38:42Z</time>
      </trkpt>
      <trkpt lat="48.05176" lon="6.92642">
        <ele>1103.79</ele>
        <time>2022-09-20T11:39:08Z</time>
      </trkpt>
      <trkpt lat="48.05197" lon="6.92663">
        <ele>1104.39</ele>
        <time>2022-09-20T11:39:29Z</time>
      </trkpt>
      <trkpt lat="48.05216" lon="6.92694">
        <ele>1103.59</ele>
        <time>2022-09-20T11:39:50Z</time>
      </trkpt>
      <trkpt lat="48.05234" lon="6.92723">
        <ele>1103.19</ele>
        <time>2022-09-20T11:40:13Z</time>
      </trkpt>
      <trkpt lat="48.05256" lon="6.92742">
        <ele>1100.59</ele>
        <time>2022-09-20T11:40:43Z</time>
      </trkpt>
      <trkpt lat="48.05282" lon="6.92754">
        <ele>1101.19</ele>
        <time>2022-09-20T11:41:05Z</time>
      </trkpt>
      <trkpt lat="48.05317" lon="6.92754">
        <ele>1103.79</ele>
        <time>2022-09-20T11:41:26Z</time>
      </trkpt>
      <trkpt lat="48.05332" lon="6.9279">
        <ele>1104.19</ele>
        <time>2022-09-20T11:41:47Z</time>
      </trkpt>
      <trkpt lat="48.05343" lon="6.92824">
        <ele>1105.39</ele>
        <time>2022-09-20T11:42:13Z</time>
      </trkpt>
      <trkpt lat="48.05343" lon="6.92861">
        <ele>1104.19</ele>
        <time>2022-09-20T11:42:41Z</time>
      </trkpt>
      <trkpt lat="48.05334" lon="6.92897">
        <ele>1105.19</ele>
        <time>2022-09-20T11:43:02Z</time>
      </trkpt>
      <trkpt lat="48.0534" lon="6.92936">
        <ele>1107.79</ele>
        <time>2022-09-20T11:43:44Z</time>
      </trkpt>
      <trkpt lat="48.05353" lon="6.92974">
        <ele>1104.19</ele>
        <time>2022-09-20T11:44:05Z</time>
      </trkpt>
      <trkpt lat="48.05351" lon="6.93011">
        <ele>1106.59</ele>
        <time>2022-09-20T11:44:28Z</time>
      </trkpt>
      <trkpt lat="48.05364" lon="6.93048">
        <ele>1108.39</ele>
        <time>2022-09-20T11:44:52Z</time>
      </trkpt>
      <trkpt lat="48.05367" lon="6.93086">
        <ele>1109.59</ele>
        <time>2022-09-20T11:45:19Z</time>
      </trkpt>
      <trkpt lat="48.05369" lon="6.93125">
        <ele>1108.39</ele>
        <time>2022-09-20T11:45:42Z</time>
      </trkpt>
      <trkpt lat="48.05371" lon="6.93127">
        <ele>1108.39</ele>
        <time>2022-09-20T11:45:44Z</time>
      </trkpt>
      <trkpt lat="48.05371" lon="6.93165">
        <ele>1104.79</ele>
        <time>2022-09-20T11:46:11Z</time>
      </trkpt>
      <trkpt lat="48.05374" lon="6.93206">
        <ele>1102.39</ele>
        <time>2022-09-20T11:46:32Z</time>
      </trkpt>
      <trkpt lat="48.0538" lon="6.93244">
        <ele>1099.99</ele>
        <time>2022-09-20T11:46:56Z</time>
      </trkpt>
      <trkpt lat="48.05385" lon="6.9328">
        <ele>1098.99</ele>
        <time>2022-09-20T11:47:21Z</time>
      </trkpt>
      <trkpt lat="48.05391" lon="6.93323">
        <ele>1098.59</ele>
        <time>2022-09-20T11:47:42Z</time>
      </trkpt>
      <trkpt lat="48.05378" lon="6.93356">
        <ele>1097.59</ele>
        <time>2022-09-20T11:48:07Z</time>
      </trkpt>
      <trkpt lat="48.05373" lon="6.93391">
        <ele>1096.19</ele>
        <time>2022-09-20T11:48:29Z</time>
      </trkpt>
      <trkpt lat="48.05392" lon="6.93416">
        <ele>1091.39</ele>
        <time>2022-09-20T11:49:00Z</time>
      </trkpt>
      <trkpt lat="48.05403" lon="6.93465">
        <ele>1091.39</ele>
        <time>2022-09-20T11:49:21Z</time>
      </trkpt>
      <trkpt lat="48.05416" lon="6.93501">
        <ele>1087.59</ele>
        <time>2022-09-20T11:49:53Z</time>
      </trkpt>
      <trkpt lat="48.05425" lon="6.93538">
        <ele>1085.19</ele>
        <time>2022-09-20T11:50:23Z</time>
      </trkpt>
      <trkpt lat="48.05437" lon="6.93578">
        <ele>1085.39</ele>
        <time>2022-09-20T11:50:44Z</time>
      </trkpt>
      <trkpt lat="48.05447" lon="6.93609">
        <ele>1083.19</ele>
        <time>2022-09-20T11:51:13Z</time>
      </trkpt>
      <trkpt lat="48.05468" lon="6.93637">
        <ele>1079.59</ele>
        <time>2022-09-20T11:51:34Z</time>
      </trkpt>
      <trkpt lat="48.05487" lon="6.93678">
        <ele>1075.79</ele>
        <time>2022-09-20T11:51:55Z</time>
      </trkpt>
      <trkpt lat="48.05489" lon="6.93717">
        <ele>1072.99</ele>
        <time>2022-09-20T11:52:17Z</time>
      </trkpt>
      <trkpt lat="48.05497" lon="6.93755">
        <ele>1067.39</ele>
        <time>2022-09-20T11:52:43Z</time>
      </trkpt>
      <trkpt lat="48.05513" lon="6.93784">
        <ele>1061.19</ele>
        <time>2022-09-20T11:53:05Z</time>
      </trkpt>
      <trkpt lat="48.05522" lon="6.93822">
        <ele>1058.79</ele>
        <time>2022-09-20T11:53:29Z</time>
      </trkpt>
      <trkpt lat="48.05532" lon="6.93858">
        <ele>1055.99</ele>
        <time>2022-09-20T11:53:50Z</time>
      </trkpt>
      <trkpt lat="48.0553" lon="6.93897">
        <ele>1054.99</ele>
        <time>2022-09-20T11:54:16Z</time>
      </trkpt>
      <trkpt lat="48.05542" lon="6.93925">
        <ele>1043.99</ele>
        <time>2022-09-20T11:54:44Z</time>
      </trkpt>
      <trkpt lat="48.05546" lon="6.93966">
        <ele>1041.79</ele>
        <time>2022-09-20T11:55:07Z</time>
      </trkpt>
      <trkpt lat="48.05547" lon="6.94005">
        <ele>1041.99</ele>
        <time>2022-09-20T11:55:29Z</time>
      </trkpt>
      <trkpt lat="48.05554" lon="6.94043">
        <ele>1041.39</ele>
        <time>2022-09-20T11:55:58Z</time>
      </trkpt>
      <trkpt lat="48.05563" lon="6.9408">
        <ele>1038.99</ele>
        <time>2022-09-20T11:56:26Z</time>
      </trkpt>
      <trkpt lat="48.05579" lon="6.94115">
        <ele>962.5</ele>
        <time>2022-09-20T11:57:05Z</time>
      </trkpt>
      <trkpt lat="48.0559" lon="6.94147">
        <ele>1027.99</ele>
        <time>2022-09-20T11:57:27Z</time>
      </trkpt>
      <trkpt lat="48.05606" lon="6.9418">
        <ele>1024.19</ele>
        <time>2022-09-20T11:57:57Z</time>
      </trkpt>
      <trkpt lat="48.05624" lon="6.94206">
        <ele>1020.59</ele>
        <time>2022-09-20T11:58:25Z</time>
      </trkpt>
      <trkpt lat="48.05647" lon="6.9423">
        <ele>1017.59</ele>
        <time>2022-09-20T11:58:47Z</time>
      </trkpt>
      <trkpt lat="48.05666" lon="6.94257">
        <ele>1014.19</ele>
        <time>2022-09-20T11:59:16Z</time>
      </trkpt>
      <trkpt lat="48.05684" lon="6.94279">
        <ele>929.8</ele>
        <time>2022-09-20T11:59:49Z</time>
      </trkpt>
      <trkpt lat="48.05685" lon="6.94272">
        <ele>995.19</ele>
        <time>2022-09-20T12:05:51Z</time>
      </trkpt>
      <trkpt lat="48.05699" lon="6.94294">
        <ele>994.99</ele>
        <time>2022-09-20T12:07:21Z</time>
      </trkpt>
      <trkpt lat="48.05701" lon="6.94289">
        <ele>985.19</ele>
        <time>2022-09-20T12:12:00Z</time>
      </trkpt>
      <trkpt lat="48.0571" lon="6.94306">
        <ele>989.19</ele>
        <time>2022-09-20T12:12:43Z</time>
      </trkpt>
      <trkpt lat="48.05689" lon="6.94311">
        <ele>996.59</ele>
        <time>2022-09-20T12:13:34Z</time>
      </trkpt>
      <trkpt lat="48.05682" lon="6.94346">
        <ele>994.19</ele>
        <time>2022-09-20T12:13:57Z</time>
      </trkpt>
      <trkpt lat="48.05676" lon="6.94386">
        <ele>993.39</ele>
        <time>2022-09-20T12:14:20Z</time>
      </trkpt>
      <trkpt lat="48.05675" lon="6.94424">
        <ele>988.59</ele>
        <time>2022-09-20T12:14:43Z</time>
      </trkpt>
      <trkpt lat="48.05672" lon="6.94456">
        <ele>929.9</ele>
        <time>2022-09-20T12:15:04Z</time>
      </trkpt>
      <trkpt lat="48.05667" lon="6.94494">
        <ele>987.59</ele>
        <time>2022-09-20T12:15:27Z</time>
      </trkpt>
      <trkpt lat="48.05655" lon="6.9453">
        <ele>985.99</ele>
        <time>2022-09-20T12:15:51Z</time>
      </trkpt>
      <trkpt lat="48.05637" lon="6.94559">
        <ele>985.59</ele>
        <time>2022-09-20T12:16:17Z</time>
      </trkpt>
      <trkpt lat="48.0562" lon="6.94583">
        <ele>984.19</ele>
        <time>2022-09-20T12:16:40Z</time>
      </trkpt>
      <trkpt lat="48.056" lon="6.94609">
        <ele>985.99</ele>
        <time>2022-09-20T12:17:02Z</time>
      </trkpt>
      <trkpt lat="48.05578" lon="6.94637">
        <ele>987.99</ele>
        <time>2022-09-20T12:17:23Z</time>
      </trkpt>
      <trkpt lat="48.05555" lon="6.94656">
        <ele>987.99</ele>
        <time>2022-09-20T12:17:49Z</time>
      </trkpt>
      <trkpt lat="48.05531" lon="6.94682">
        <ele>988.19</ele>
        <time>2022-09-20T12:18:10Z</time>
      </trkpt>
      <trkpt lat="48.05516" lon="6.94711">
        <ele>987.79</ele>
        <time>2022-09-20T12:18:34Z</time>
      </trkpt>
      <trkpt lat="48.05498" lon="6.94741">
        <ele>989.19</ele>
        <time>2022-09-20T12:18:56Z</time>
      </trkpt>
      <trkpt lat="48.05474" lon="6.94761">
        <ele>988.39</ele>
        <time>2022-09-20T12:19:17Z</time>
      </trkpt>
      <trkpt lat="48.05452" lon="6.94781">
        <ele>984.39</ele>
        <time>2022-09-20T12:19:39Z</time>
      </trkpt>
      <trkpt lat="48.0545" lon="6.94781">
        <ele>984.39</ele>
        <time>2022-09-20T12:19:40Z</time>
      </trkpt>
      <trkpt lat="48.05421" lon="6.94787">
        <ele>921.9</ele>
        <time>2022-09-20T12:20:01Z</time>
      </trkpt>
      <trkpt lat="48.05396" lon="6.94791">
        <ele>981.39</ele>
        <time>2022-09-20T12:20:27Z</time>
      </trkpt>
      <trkpt lat="48.05373" lon="6.94793">
        <ele>917.2</ele>
        <time>2022-09-20T12:20:49Z</time>
      </trkpt>
      <trkpt lat="48.05369" lon="6.94795">
        <ele>916.9</ele>
      </trkpt>
      <trkpt lat="48.05344" lon="6.94806">
        <ele>975.78</ele>
        <time>2022-09-20T12:21:15Z</time>
      </trkpt>
      <trkpt lat="48.0532" lon="6.94815">
        <ele>915</ele>
        <time>2022-09-20T12:21:40Z</time>
      </trkpt>
      <trkpt lat="48.05314" lon="6.94815">
        <ele>914.2</ele>
        <time>2022-09-20T12:25:45Z</time>
      </trkpt>
      <trkpt lat="48.05319" lon="6.94822">
        <ele>916.1</ele>
      </trkpt>
      <trkpt lat="48.05329" lon="6.94823">
        <ele>980.78</ele>
        <time>2022-09-20T12:32:33Z</time>
      </trkpt>
      <trkpt lat="48.05349" lon="6.94845">
        <ele>981.39</ele>
        <time>2022-09-20T12:33:08Z</time>
      </trkpt>
      <trkpt lat="48.05362" lon="6.94873">
        <ele>983.18</ele>
        <time>2022-09-20T12:33:42Z</time>
      </trkpt>
      <trkpt lat="48.05383" lon="6.94888">
        <ele>977.78</ele>
        <time>2022-09-20T12:34:45Z</time>
      </trkpt>
      <trkpt lat="48.05407" lon="6.94872">
        <ele>976.78</ele>
        <time>2022-09-20T12:35:15Z</time>
      </trkpt>
      <trkpt lat="48.05427" lon="6.9487">
        <ele>971.18</ele>
        <time>2022-09-20T12:35:59Z</time>
      </trkpt>
      <trkpt lat="48.05448" lon="6.94863">
        <ele>968.18</ele>
        <time>2022-09-20T12:36:35Z</time>
      </trkpt>
      <trkpt lat="48.05465" lon="6.94851">
        <ele>967.78</ele>
        <time>2022-09-20T12:37:15Z</time>
      </trkpt>
      <trkpt lat="48.05488" lon="6.94852">
        <ele>967.39</ele>
        <time>2022-09-20T12:37:43Z</time>
      </trkpt>
      <trkpt lat="48.05505" lon="6.94856">
        <ele>966.18</ele>
        <time>2022-09-20T12:38:19Z</time>
      </trkpt>
      <trkpt lat="48.05527" lon="6.94843">
        <ele>967.18</ele>
        <time>2022-09-20T12:39:06Z</time>
      </trkpt>
      <trkpt lat="48.05522" lon="6.94847">
        <ele>967.99</ele>
        <time>2022-09-20T12:39:40Z</time>
      </trkpt>
      <trkpt lat="48.05538" lon="6.94856">
        <ele>969.59</ele>
        <time>2022-09-20T12:40:06Z</time>
      </trkpt>
      <trkpt lat="48.05553" lon="6.94841">
        <ele>974.18</ele>
        <time>2022-09-20T12:40:52Z</time>
      </trkpt>
      <trkpt lat="48.05576" lon="6.9482">
        <ele>972.99</ele>
        <time>2022-09-20T12:41:43Z</time>
      </trkpt>
      <trkpt lat="48.05596" lon="6.94795">
        <ele>973.99</ele>
        <time>2022-09-20T12:42:14Z</time>
      </trkpt>
      <trkpt lat="48.05619" lon="6.94787">
        <ele>977.18</ele>
        <time>2022-09-20T12:42:47Z</time>
      </trkpt>
      <trkpt lat="48.05623" lon="6.94784">
        <ele>1004.78</ele>
        <time>2022-09-20T12:46:28Z</time>
      </trkpt>
      <trkpt lat="48.05647" lon="6.94774">
        <ele>1007.18</ele>
        <time>2022-09-20T12:48:23Z</time>
      </trkpt>
      <trkpt lat="48.05679" lon="6.94789">
        <ele>1008.18</ele>
        <time>2022-09-20T12:48:44Z</time>
      </trkpt>
      <trkpt lat="48.05706" lon="6.94793">
        <ele>997.7</ele>
      </trkpt>
      <trkpt lat="48.0571" lon="6.94794">
        <ele>997.7</ele>
        <time>2022-09-20T12:49:08Z</time>
      </trkpt>
      <trkpt lat="48.05732" lon="6.94803">
        <ele>1013.39</ele>
        <time>2022-09-20T12:49:35Z</time>
      </trkpt>
      <trkpt lat="48.05765" lon="6.94809">
        <ele>1017.39</ele>
        <time>2022-09-20T12:49:56Z</time>
      </trkpt>
      <trkpt lat="48.05789" lon="6.94828">
        <ele>1019.18</ele>
        <time>2022-09-20T12:50:18Z</time>
      </trkpt>
      <trkpt lat="48.05813" lon="6.94842">
        <ele>999.7</ele>
        <time>2022-09-20T12:50:40Z</time>
      </trkpt>
      <trkpt lat="48.05835" lon="6.94864">
        <ele>999</ele>
        <time>2022-09-20T12:51:02Z</time>
      </trkpt>
      <trkpt lat="48.05861" lon="6.94893">
        <ele>1030.59</ele>
        <time>2022-09-20T12:51:23Z</time>
      </trkpt>
      <trkpt lat="48.05886" lon="6.94911">
        <ele>998.1</ele>
        <time>2022-09-20T12:51:47Z</time>
      </trkpt>
      <trkpt lat="48.05909" lon="6.94932">
        <ele>1043.39</ele>
        <time>2022-09-20T12:52:13Z</time>
      </trkpt>
      <trkpt lat="48.05932" lon="6.94961">
        <ele>1045.78</ele>
        <time>2022-09-20T12:52:34Z</time>
      </trkpt>
      <trkpt lat="48.05956" lon="6.94973">
        <ele>1045.99</ele>
        <time>2022-09-20T12:52:55Z</time>
      </trkpt>
      <trkpt lat="48.05982" lon="6.94982">
        <ele>1046.78</ele>
        <time>2022-09-20T12:53:16Z</time>
      </trkpt>
      <trkpt lat="48.06005" lon="6.94985">
        <ele>1046.78</ele>
        <time>2022-09-20T12:53:39Z</time>
      </trkpt>
      <trkpt lat="48.06032" lon="6.94991">
        <ele>1048.99</ele>
        <time>2022-09-20T12:54:04Z</time>
      </trkpt>
      <trkpt lat="48.06058" lon="6.94989">
        <ele>1049.59</ele>
        <time>2022-09-20T12:54:28Z</time>
      </trkpt>
      <trkpt lat="48.06085" lon="6.94987">
        <ele>1047.59</ele>
        <time>2022-09-20T12:54:52Z</time>
      </trkpt>
      <trkpt lat="48.06103" lon="6.95017">
        <ele>1046.99</ele>
        <time>2022-09-20T12:55:13Z</time>
      </trkpt>
      <trkpt lat="48.06113" lon="6.9505">
        <ele>1045.78</ele>
        <time>2022-09-20T12:55:38Z</time>
      </trkpt>
      <trkpt lat="48.06134" lon="6.95074">
        <ele>1044.18</ele>
        <time>2022-09-20T12:56:02Z</time>
      </trkpt>
      <trkpt lat="48.06152" lon="6.95102">
        <ele>1038.78</ele>
        <time>2022-09-20T12:56:27Z</time>
      </trkpt>
      <trkpt lat="48.06166" lon="6.95112">
        <ele>1030.59</ele>
        <time>2022-09-20T12:58:57Z</time>
      </trkpt>
      <trkpt lat="48.06158" lon="6.95097">
        <ele>1026.59</ele>
        <time>2022-09-20T13:01:14Z</time>
      </trkpt>
      <trkpt lat="48.06141" lon="6.95077">
        <ele>1030.39</ele>
        <time>2022-09-20T13:03:42Z</time>
      </trkpt>
      <trkpt lat="48.06122" lon="6.95054">
        <ele>983.2</ele>
        <time>2022-09-20T13:04:11Z</time>
      </trkpt>
      <trkpt lat="48.06108" lon="6.95022">
        <ele>987.7</ele>
        <time>2022-09-20T13:04:42Z</time>
      </trkpt>
      <trkpt lat="48.0609" lon="6.94985">
        <ele>990.5</ele>
        <time>2022-09-20T13:05:07Z</time>
      </trkpt>
      <trkpt lat="48.06075" lon="6.94985">
        <ele>991.6</ele>
        <time>2022-09-20T13:05:29Z</time>
      </trkpt>
      <trkpt lat="48.0605" lon="6.94988">
        <ele>1039.78</ele>
        <time>2022-09-20T13:05:56Z</time>
      </trkpt>
      <trkpt lat="48.06049" lon="6.94988">
        <ele>1039.78</ele>
        <time>2022-09-20T13:05:57Z</time>
      </trkpt>
      <trkpt lat="48.06027" lon="6.94987">
        <ele>992</ele>
        <time>2022-09-20T13:06:25Z</time>
      </trkpt>
      <trkpt lat="48.05999" lon="6.94983">
        <ele>1044.58</ele>
        <time>2022-09-20T13:06:47Z</time>
      </trkpt>
      <trkpt lat="48.05973" lon="6.94976">
        <ele>1045.58</ele>
        <time>2022-09-20T13:07:09Z</time>
      </trkpt>
      <trkpt lat="48.0595" lon="6.94961">
        <ele>1048.58</ele>
        <time>2022-09-20T13:07:34Z</time>
      </trkpt>
      <trkpt lat="48.05928" lon="6.94948">
        <ele>1051.58</ele>
        <time>2022-09-20T13:07:55Z</time>
      </trkpt>
      <trkpt lat="48.05911" lon="6.94926">
        <ele>1051.38</ele>
        <time>2022-09-20T13:08:19Z</time>
      </trkpt>
      <trkpt lat="48.05888" lon="6.94909">
        <ele>998</ele>
        <time>2022-09-20T13:08:45Z</time>
      </trkpt>
      <trkpt lat="48.05864" lon="6.94886">
        <ele>1056.58</ele>
        <time>2022-09-20T13:09:06Z</time>
      </trkpt>
      <trkpt lat="48.05843" lon="6.94859">
        <ele>998</ele>
        <time>2022-09-20T13:09:39Z</time>
      </trkpt>
      <trkpt lat="48.05824" lon="6.94835">
        <ele>1051.58</ele>
        <time>2022-09-20T13:10:09Z</time>
      </trkpt>
      <trkpt lat="48.05804" lon="6.94815">
        <ele>1052.38</ele>
        <time>2022-09-20T13:10:30Z</time>
      </trkpt>
      <trkpt lat="48.05776" lon="6.94795">
        <ele>1055.98</ele>
        <time>2022-09-20T13:10:51Z</time>
      </trkpt>
      <trkpt lat="48.05749" lon="6.9479">
        <ele>1057.38</ele>
        <time>2022-09-20T13:11:17Z</time>
      </trkpt>
      <trkpt lat="48.05721" lon="6.94783">
        <ele>1056.38</ele>
        <time>2022-09-20T13:11:38Z</time>
      </trkpt>
      <trkpt lat="48.05699" lon="6.94772">
        <ele>1057.58</ele>
        <time>2022-09-20T13:12:05Z</time>
      </trkpt>
      <trkpt lat="48.05674" lon="6.94768">
        <ele>1056.58</ele>
        <time>2022-09-20T13:12:32Z</time>
      </trkpt>
      <trkpt lat="48.05649" lon="6.94761">
        <ele>1054.18</ele>
        <time>2022-09-20T13:13:00Z</time>
      </trkpt>
      <trkpt lat="48.05656" lon="6.94725">
        <ele>1049.38</ele>
        <time>2022-09-20T13:13:41Z</time>
      </trkpt>
      <trkpt lat="48.0566" lon="6.94689">
        <ele>1047.18</ele>
        <time>2022-09-20T13:14:12Z</time>
      </trkpt>
      <trkpt lat="48.05665" lon="6.94647">
        <ele>1045.58</ele>
        <time>2022-09-20T13:14:40Z</time>
      </trkpt>
      <trkpt lat="48.05678" lon="6.94615">
        <ele>1038.78</ele>
        <time>2022-09-20T13:15:18Z</time>
      </trkpt>
      <trkpt lat="48.05688" lon="6.94574">
        <ele>1035.38</ele>
        <time>2022-09-20T13:15:47Z</time>
      </trkpt>
      <trkpt lat="48.05701" lon="6.9454">
        <ele>1031.38</ele>
        <time>2022-09-20T13:16:22Z</time>
      </trkpt>
      <trkpt lat="48.05709" lon="6.94505">
        <ele>1029.18</ele>
        <time>2022-09-20T13:16:46Z</time>
      </trkpt>
      <trkpt lat="48.0571" lon="6.94469">
        <ele>1024.98</ele>
        <time>2022-09-20T13:17:17Z</time>
      </trkpt>
      <trkpt lat="48.05705" lon="6.94431">
        <ele>1018.98</ele>
        <time>2022-09-20T13:17:43Z</time>
      </trkpt>
      <trkpt lat="48.05704" lon="6.944">
        <ele>941.8</ele>
        <time>2022-09-20T13:18:12Z</time>
      </trkpt>
      <trkpt lat="48.057" lon="6.9436">
        <ele>1010.58</ele>
        <time>2022-09-20T13:18:36Z</time>
      </trkpt>
      <trkpt lat="48.057" lon="6.94324">
        <ele>1004.78</ele>
        <time>2022-09-20T13:19:09Z</time>
      </trkpt>
      <trkpt lat="48.0569" lon="6.94329">
        <ele>990.78</ele>
        <time>2022-09-20T13:19:43Z</time>
      </trkpt>
      <trkpt lat="48.05684" lon="6.94367">
        <ele>988.78</ele>
        <time>2022-09-20T13:20:04Z</time>
      </trkpt>
      <trkpt lat="48.05678" lon="6.94404">
        <ele>988.58</ele>
        <time>2022-09-20T13:20:28Z</time>
      </trkpt>
      <trkpt lat="48.05677" lon="6.94442">
        <ele>990.38</ele>
        <time>2022-09-20T13:20:53Z</time>
      </trkpt>
      <trkpt lat="48.05674" lon="6.94481">
        <ele>991.18</ele>
        <time>2022-09-20T13:21:16Z</time>
      </trkpt>
      <trkpt lat="48.05662" lon="6.94519">
        <ele>933.4</ele>
        <time>2022-09-20T13:21:38Z</time>
      </trkpt>
      <trkpt lat="48.05645" lon="6.9455">
        <ele>934.4</ele>
        <time>2022-09-20T13:22:01Z</time>
      </trkpt>
      <trkpt lat="48.05626" lon="6.94577">
        <ele>987.58</ele>
        <time>2022-09-20T13:22:24Z</time>
      </trkpt>
      <trkpt lat="48.05608" lon="6.94606">
        <ele>985.58</ele>
        <time>2022-09-20T13:22:50Z</time>
      </trkpt>
      <trkpt lat="48.05587" lon="6.94631">
        <ele>982.38</ele>
        <time>2022-09-20T13:23:12Z</time>
      </trkpt>
      <trkpt lat="48.05566" lon="6.94653">
        <ele>981.18</ele>
        <time>2022-09-20T13:23:36Z</time>
      </trkpt>
      <trkpt lat="48.05541" lon="6.94673">
        <ele>979.98</ele>
        <time>2022-09-20T13:24:02Z</time>
      </trkpt>
      <trkpt lat="48.05525" lon="6.94701">
        <ele>980.18</ele>
        <time>2022-09-20T13:24:23Z</time>
      </trkpt>
      <trkpt lat="48.05509" lon="6.94732">
        <ele>930.1</ele>
        <time>2022-09-20T13:24:45Z</time>
      </trkpt>
      <trkpt lat="48.05507" lon="6.94734">
        <ele>929.9</ele>
      </trkpt>
      <trkpt lat="48.05506" lon="6.94736">
        <ele>929.8</ele>
      </trkpt>
      <trkpt lat="48.05488" lon="6.94758">
        <ele>979.18</ele>
        <time>2022-09-20T13:25:06Z</time>
      </trkpt>
      <trkpt lat="48.05464" lon="6.94776">
        <ele>979.78</ele>
        <time>2022-09-20T13:25:27Z</time>
      </trkpt>
      <trkpt lat="48.05438" lon="6.94788">
        <ele>980.18</ele>
        <time>2022-09-20T13:25:48Z</time>
      </trkpt>
      <trkpt lat="48.05412" lon="6.94795">
        <ele>979.38</ele>
        <time>2022-09-20T13:26:10Z</time>
      </trkpt>
      <trkpt lat="48.05385" lon="6.948">
        <ele>977.58</ele>
        <time>2022-09-20T13:26:33Z</time>
      </trkpt>
      <trkpt lat="48.05359" lon="6.94805">
        <ele>975.58</ele>
        <time>2022-09-20T13:26:58Z</time>
      </trkpt>
      <trkpt lat="48.05332" lon="6.94816">
        <ele>916.5</ele>
        <time>2022-09-20T13:27:19Z</time>
      </trkpt>
      <trkpt lat="48.05313" lon="6.9482">
        <ele>959.18</ele>
        <time>2022-09-20T13:36:44Z</time>
      </trkpt>
      <trkpt lat="48.05306" lon="6.94788">
        <ele>957.98</ele>
        <time>2022-09-20T13:37:18Z</time>
      </trkpt>
      <trkpt lat="48.05302" lon="6.9475">
        <ele>957.78</ele>
        <time>2022-09-20T13:37:39Z</time>
      </trkpt>
      <trkpt lat="48.053" lon="6.9471">
        <ele>958.18</ele>
        <time>2022-09-20T13:38:03Z</time>
      </trkpt>
      <trkpt lat="48.05302" lon="6.94698">
        <ele>956.58</ele>
        <time>2022-09-20T13:38:40Z</time>
      </trkpt>
      <trkpt lat="48.05329" lon="6.94688">
        <ele>958.18</ele>
        <time>2022-09-20T13:39:01Z</time>
      </trkpt>
      <trkpt lat="48.05331" lon="6.94687">
        <ele>958.18</ele>
        <time>2022-09-20T13:39:03Z</time>
      </trkpt>
      <trkpt lat="48.05345" lon="6.9466">
        <ele>959.78</ele>
        <time>2022-09-20T13:39:32Z</time>
      </trkpt>
      <trkpt lat="48.05364" lon="6.94636">
        <ele>959.38</ele>
        <time>2022-09-20T13:39:57Z</time>
      </trkpt>
      <trkpt lat="48.05387" lon="6.94617">
        <ele>959.38</ele>
        <time>2022-09-20T13:40:31Z</time>
      </trkpt>
      <trkpt lat="48.0541" lon="6.94596">
        <ele>958.58</ele>
        <time>2022-09-20T13:41:11Z</time>
      </trkpt>
      <trkpt lat="48.05411" lon="6.94592">
        <ele>954.78</ele>
        <time>2022-09-20T13:43:10Z</time>
      </trkpt>
      <trkpt lat="48.0541" lon="6.94595">
        <ele>952.78</ele>
        <time>2022-09-20T13:44:09Z</time>
      </trkpt>
      <trkpt lat="48.0539" lon="6.9461">
        <ele>950.58</ele>
        <time>2022-09-20T13:44:55Z</time>
      </trkpt>
      <trkpt lat="48.05366" lon="6.94633">
        <ele>951.78</ele>
        <time>2022-09-20T13:45:24Z</time>
      </trkpt>
      <trkpt lat="48.05349" lon="6.94661">
        <ele>952.78</ele>
        <time>2022-09-20T13:46:17Z</time>
      </trkpt>
      <trkpt lat="48.05357" lon="6.94689">
        <ele>953.18</ele>
        <time>2022-09-20T13:46:48Z</time>
      </trkpt>
      <trkpt lat="48.05368" lon="6.94722">
        <ele>955.38</ele>
        <time>2022-09-20T13:47:17Z</time>
      </trkpt>
      <trkpt lat="48.05382" lon="6.94745">
        <ele>955.78</ele>
        <time>2022-09-20T13:47:39Z</time>
      </trkpt>
      <trkpt lat="48.05402" lon="6.94734">
        <ele>956.98</ele>
        <time>2022-09-20T13:48:43Z</time>
      </trkpt>
      <trkpt lat="48.05426" lon="6.94715">
        <ele>961.18</ele>
        <time>2022-09-20T13:49:05Z</time>
      </trkpt>
      <trkpt lat="48.05443" lon="6.94684">
        <ele>960.98</ele>
        <time>2022-09-20T13:49:31Z</time>
      </trkpt>
      <trkpt lat="48.05459" lon="6.94651">
        <ele>961.18</ele>
        <time>2022-09-20T13:49:54Z</time>
      </trkpt>
      <trkpt lat="48.05479" lon="6.94625">
        <ele>961.18</ele>
        <time>2022-09-20T13:50:17Z</time>
      </trkpt>
      <trkpt lat="48.05504" lon="6.94614">
        <ele>955.98</ele>
        <time>2022-09-20T13:51:36Z</time>
      </trkpt>
      <trkpt lat="48.05529" lon="6.94602">
        <ele>960.58</ele>
        <time>2022-09-20T13:52:29Z</time>
      </trkpt>
      <trkpt lat="48.05556" lon="6.94593">
        <ele>961.38</ele>
        <time>2022-09-20T13:52:54Z</time>
      </trkpt>
      <trkpt lat="48.05582" lon="6.94579">
        <ele>962.58</ele>
        <time>2022-09-20T13:53:19Z</time>
      </trkpt>
      <trkpt lat="48.05601" lon="6.94552">
        <ele>964.18</ele>
        <time>2022-09-20T13:53:51Z</time>
      </trkpt>
      <trkpt lat="48.0562" lon="6.94523">
        <ele>965.98</ele>
        <time>2022-09-20T13:54:28Z</time>
      </trkpt>
      <trkpt lat="48.0564" lon="6.94499">
        <ele>966.18</ele>
        <time>2022-09-20T13:54:52Z</time>
      </trkpt>
      <trkpt lat="48.0565" lon="6.94466">
        <ele>963.38</ele>
        <time>2022-09-20T13:56:06Z</time>
      </trkpt>
      <trkpt lat="48.05654" lon="6.9446">
        <ele>963.18</ele>
        <time>2022-09-20T13:57:48Z</time>
      </trkpt>
      <trkpt lat="48.05655" lon="6.9443">
        <ele>965.18</ele>
        <time>2022-09-20T13:58:21Z</time>
      </trkpt>
      <trkpt lat="48.05655" lon="6.94393">
        <ele>964.38</ele>
        <time>2022-09-20T13:58:51Z</time>
      </trkpt>
      <trkpt lat="48.05658" lon="6.94358">
        <ele>964.38</ele>
        <time>2022-09-20T13:59:27Z</time>
      </trkpt>
      <trkpt lat="48.05652" lon="6.94321">
        <ele>914.8</ele>
        <time>2022-09-20T14:00:29Z</time>
      </trkpt>
      <trkpt lat="48.05638" lon="6.94303">
        <ele>914.7</ele>
        <time>2022-09-20T14:00:54Z</time>
      </trkpt>
      <trkpt lat="48.05618" lon="6.94287">
        <ele>960.98</ele>
        <time>2022-09-20T14:02:05Z</time>
      </trkpt>
      <trkpt lat="48.05603" lon="6.94289">
        <ele>913.2</ele>
        <time>2022-09-20T14:03:53Z</time>
      </trkpt>
      <trkpt lat="48.05597" lon="6.94283">
        <ele>961.58</ele>
        <time>2022-09-20T14:04:18Z</time>
      </trkpt>
      <trkpt lat="48.05573" lon="6.94269">
        <ele>958.98</ele>
        <time>2022-09-20T14:04:44Z</time>
      </trkpt>
      <trkpt lat="48.05548" lon="6.94253">
        <ele>956.78</ele>
        <time>2022-09-20T14:05:06Z</time>
      </trkpt>
      <trkpt lat="48.05524" lon="6.94242">
        <ele>955.38</ele>
        <time>2022-09-20T14:05:33Z</time>
      </trkpt>
      <trkpt lat="48.05491" lon="6.9424">
        <ele>917.1</ele>
        <time>2022-09-20T14:05:54Z</time>
      </trkpt>
      <trkpt lat="48.05467" lon="6.94248">
        <ele>962.18</ele>
        <time>2022-09-20T14:06:17Z</time>
      </trkpt>
      <trkpt lat="48.05441" lon="6.94255">
        <ele>962.38</ele>
        <time>2022-09-20T14:06:41Z</time>
      </trkpt>
      <trkpt lat="48.05416" lon="6.94242">
        <ele>960.78</ele>
        <time>2022-09-20T14:07:07Z</time>
      </trkpt>
      <trkpt lat="48.05389" lon="6.94237">
        <ele>958.38</ele>
        <time>2022-09-20T14:07:40Z</time>
      </trkpt>
      <trkpt lat="48.05366" lon="6.94213">
        <ele>956.18</ele>
        <time>2022-09-20T14:08:01Z</time>
      </trkpt>
      <trkpt lat="48.05343" lon="6.942">
        <ele>954.58</ele>
        <time>2022-09-20T14:08:30Z</time>
      </trkpt>
      <trkpt lat="48.05332" lon="6.94195">
        <ele>908.9</ele>
      </trkpt>
      <trkpt lat="48.05318" lon="6.94195">
        <ele>952.78</ele>
        <time>2022-09-20T14:08:52Z</time>
      </trkpt>
      <trkpt lat="48.05303" lon="6.94201">
        <ele>959.38</ele>
        <time>2022-09-20T14:11:23Z</time>
      </trkpt>
      <trkpt lat="48.05283" lon="6.94179">
        <ele>955.58</ele>
        <time>2022-09-20T14:11:50Z</time>
      </trkpt>
      <trkpt lat="48.05261" lon="6.94156">
        <ele>955.18</ele>
        <time>2022-09-20T14:12:12Z</time>
      </trkpt>
      <trkpt lat="48.0524" lon="6.94131">
        <ele>955.58</ele>
        <time>2022-09-20T14:12:34Z</time>
      </trkpt>
      <trkpt lat="48.05217" lon="6.94114">
        <ele>954.38</ele>
        <time>2022-09-20T14:12:55Z</time>
      </trkpt>
      <trkpt lat="48.05202" lon="6.94103">
        <ele>909.6</ele>
      </trkpt>
      <trkpt lat="48.05175" lon="6.94129">
        <ele>955.18</ele>
        <time>2022-09-20T14:13:42Z</time>
      </trkpt>
      <trkpt lat="48.05163" lon="6.94156">
        <ele>956.98</ele>
        <time>2022-09-20T14:14:25Z</time>
      </trkpt>
      <trkpt lat="48.05148" lon="6.94159">
        <ele>956.98</ele>
        <time>2022-09-20T14:15:22Z</time>
      </trkpt>
      <trkpt lat="48.05149" lon="6.9417">
        <ele>953.58</ele>
        <time>2022-09-20T14:16:58Z</time>
      </trkpt>
      <trkpt lat="48.05121" lon="6.94163">
        <ele>953.98</ele>
        <time>2022-09-20T14:17:20Z</time>
      </trkpt>
      <trkpt lat="48.05095" lon="6.94156">
        <ele>954.98</ele>
        <time>2022-09-20T14:17:53Z</time>
      </trkpt>
      <trkpt lat="48.05094" lon="6.94148">
        <ele>957.38</ele>
        <time>2022-09-20T14:19:25Z</time>
      </trkpt>
      <trkpt lat="48.05109" lon="6.94116">
        <ele>957.38</ele>
        <time>2022-09-20T14:19:46Z</time>
      </trkpt>
      <trkpt lat="48.05111" lon="6.94117">
        <ele>957.38</ele>
        <time>2022-09-20T14:19:47Z</time>
      </trkpt>
      <trkpt lat="48.05137" lon="6.94117">
        <ele>957.38</ele>
        <time>2022-09-20T14:20:08Z</time>
      </trkpt>
      <trkpt lat="48.05146" lon="6.94082">
        <ele>959.57</ele>
        <time>2022-09-20T14:20:29Z</time>
      </trkpt>
      <trkpt lat="48.05144" lon="6.94045">
        <ele>959.98</ele>
        <time>2022-09-20T14:20:50Z</time>
      </trkpt>
      <trkpt lat="48.05143" lon="6.94013">
        <ele>959.17</ele>
        <time>2022-09-20T14:21:16Z</time>
      </trkpt>
      <trkpt lat="48.05118" lon="6.94">
        <ele>957.17</ele>
        <time>2022-09-20T14:21:38Z</time>
      </trkpt>
      <trkpt lat="48.0509" lon="6.93988">
        <ele>956.17</ele>
        <time>2022-09-20T14:21:59Z</time>
      </trkpt>
      <trkpt lat="48.05066" lon="6.9398">
        <ele>954.57</ele>
        <time>2022-09-20T14:22:23Z</time>
      </trkpt>
      <trkpt lat="48.05043" lon="6.93959">
        <ele>954.78</ele>
        <time>2022-09-20T14:22:46Z</time>
      </trkpt>
      <trkpt lat="48.05021" lon="6.93944">
        <ele>952.57</ele>
        <time>2022-09-20T14:23:16Z</time>
      </trkpt>
      <trkpt lat="48.05003" lon="6.9391">
        <ele>954.78</ele>
        <time>2022-09-20T14:23:37Z</time>
      </trkpt>
      <trkpt lat="48.04994" lon="6.93871">
        <ele>953.17</ele>
        <time>2022-09-20T14:24:05Z</time>
      </trkpt>
      <trkpt lat="48.04999" lon="6.93829">
        <ele>948.17</ele>
        <time>2022-09-20T14:24:36Z</time>
      </trkpt>
      <trkpt lat="48.04984" lon="6.93799">
        <ele>944.17</ele>
        <time>2022-09-20T14:25:05Z</time>
      </trkpt>
      <trkpt lat="48.04961" lon="6.93775">
        <ele>945.78</ele>
        <time>2022-09-20T14:25:29Z</time>
      </trkpt>
      <trkpt lat="48.0494" lon="6.93761">
        <ele>941.78</ele>
        <time>2022-09-20T14:25:59Z</time>
      </trkpt>
      <trkpt lat="48.04919" lon="6.93741">
        <ele>940.17</ele>
        <time>2022-09-20T14:26:33Z</time>
      </trkpt>
      <trkpt lat="48.04899" lon="6.93712">
        <ele>939.98</ele>
        <time>2022-09-20T14:26:56Z</time>
      </trkpt>
      <trkpt lat="48.04891" lon="6.93674">
        <ele>942.78</ele>
        <time>2022-09-20T14:27:23Z</time>
      </trkpt>
      <trkpt lat="48.04884" lon="6.93634">
        <ele>939.57</ele>
        <time>2022-09-20T14:27:48Z</time>
      </trkpt>
      <trkpt lat="48.04874" lon="6.936">
        <ele>937.38</ele>
        <time>2022-09-20T14:28:13Z</time>
      </trkpt>
      <trkpt lat="48.04869" lon="6.93563">
        <ele>936.98</ele>
        <time>2022-09-20T14:28:42Z</time>
      </trkpt>
      <trkpt lat="48.04868" lon="6.93522">
        <ele>935.38</ele>
        <time>2022-09-20T14:29:07Z</time>
      </trkpt>
      <trkpt lat="48.04866" lon="6.93485">
        <ele>934.57</ele>
        <time>2022-09-20T14:29:37Z</time>
      </trkpt>
      <trkpt lat="48.04859" lon="6.93462">
        <ele>928.57</ele>
        <time>2022-09-20T14:30:27Z</time>
      </trkpt>
      <trkpt lat="48.04839" lon="6.93438">
        <ele>925.98</ele>
        <time>2022-09-20T14:31:25Z</time>
      </trkpt>
      <trkpt lat="48.04828" lon="6.93437">
        <ele>924.78</ele>
        <time>2022-09-20T14:32:45Z</time>
      </trkpt>
      <trkpt lat="48.04806" lon="6.93418">
        <ele>925.78</ele>
        <time>2022-09-20T14:33:25Z</time>
      </trkpt>
      <trkpt lat="48.04785" lon="6.9339">
        <ele>923.38</ele>
        <time>2022-09-20T14:33:46Z</time>
      </trkpt>
      <trkpt lat="48.04758" lon="6.93375">
        <ele>920.98</ele>
        <time>2022-09-20T14:34:07Z</time>
      </trkpt>
      <trkpt lat="48.04732" lon="6.93378">
        <ele>923.17</ele>
        <time>2022-09-20T14:34:28Z</time>
      </trkpt>
      <trkpt lat="48.04707" lon="6.9339">
        <ele>921.98</ele>
        <time>2022-09-20T14:34:50Z</time>
      </trkpt>
      <trkpt lat="48.04683" lon="6.93366">
        <ele>921.17</ele>
        <time>2022-09-20T14:35:11Z</time>
      </trkpt>
      <trkpt lat="48.04672" lon="6.93328">
        <ele>920.17</ele>
        <time>2022-09-20T14:35:32Z</time>
      </trkpt>
      <trkpt lat="48.04657" lon="6.93297">
        <ele>919.17</ele>
        <time>2022-09-20T14:35:56Z</time>
      </trkpt>
      <trkpt lat="48.04631" lon="6.93281">
        <ele>918.17</ele>
        <time>2022-09-20T14:36:18Z</time>
      </trkpt>
      <trkpt lat="48.0461" lon="6.93259">
        <ele>920.57</ele>
        <time>2022-09-20T14:36:43Z</time>
      </trkpt>
      <trkpt lat="48.04584" lon="6.93244">
        <ele>919.38</ele>
        <time>2022-09-20T14:37:12Z</time>
      </trkpt>
      <trkpt lat="48.04558" lon="6.93242">
        <ele>917.78</ele>
        <time>2022-09-20T14:37:37Z</time>
      </trkpt>
      <trkpt lat="48.04539" lon="6.93219">
        <ele>920.98</ele>
        <time>2022-09-20T14:37:58Z</time>
      </trkpt>
      <trkpt lat="48.04516" lon="6.93198">
        <ele>921.38</ele>
        <time>2022-09-20T14:38:30Z</time>
      </trkpt>
      <trkpt lat="48.04513" lon="6.93197">
        <ele>922.17</ele>
        <time>2022-09-20T14:41:12Z</time>
      </trkpt>
      <trkpt lat="48.04499" lon="6.9317">
        <ele>921.78</ele>
        <time>2022-09-20T14:41:41Z</time>
      </trkpt>
      <trkpt lat="48.04475" lon="6.93152">
        <ele>919.57</ele>
        <time>2022-09-20T14:42:05Z</time>
      </trkpt>
      <trkpt lat="48.04459" lon="6.93123">
        <ele>919.98</ele>
        <time>2022-09-20T14:42:28Z</time>
      </trkpt>
      <trkpt lat="48.04433" lon="6.93123">
        <ele>921.98</ele>
        <time>2022-09-20T14:42:49Z</time>
      </trkpt>
      <trkpt lat="48.04408" lon="6.9311">
        <ele>920.57</ele>
        <time>2022-09-20T14:43:16Z</time>
      </trkpt>
      <trkpt lat="48.04383" lon="6.93098">
        <ele>920.17</ele>
        <time>2022-09-20T14:43:37Z</time>
      </trkpt>
      <trkpt lat="48.04356" lon="6.93093">
        <ele>919.17</ele>
        <time>2022-09-20T14:43:59Z</time>
      </trkpt>
      <trkpt lat="48.04328" lon="6.93095">
        <ele>916.78</ele>
        <time>2022-09-20T14:44:23Z</time>
      </trkpt>
      <trkpt lat="48.04301" lon="6.93091">
        <ele>916.17</ele>
        <time>2022-09-20T14:44:47Z</time>
      </trkpt>
      <trkpt lat="48.04281" lon="6.93116">
        <ele>915.38</ele>
        <time>2022-09-20T14:45:16Z</time>
      </trkpt>
      <trkpt lat="48.04272" lon="6.93131">
        <ele>859.2</ele>
      </trkpt>
      <trkpt lat="48.04265" lon="6.93146">
        <ele>913.98</ele>
        <time>2022-09-20T14:45:40Z</time>
      </trkpt>
      <trkpt lat="48.04264" lon="6.93168">
        <ele>862</ele>
      </trkpt>
      <trkpt lat="48.04265" lon="6.9319">
        <ele>861.1</ele>
        <time>2022-09-20T14:46:09Z</time>
      </trkpt>
      <trkpt lat="48.04272" lon="6.93214">
        <ele>861.7</ele>
      </trkpt>
      <trkpt lat="48.04275" lon="6.9322">
        <ele>862</ele>
        <time>2022-09-20T14:46:32Z</time>
      </trkpt>
      <trkpt lat="48.04275" lon="6.93228">
        <ele>862.1</ele>
      </trkpt>
      <trkpt lat="48.04274" lon="6.93238">
        <ele>862.1</ele>
        <time>2022-09-20T14:47:12Z</time>
      </trkpt>
    </trkseg>
  </trk>
</gpx>